<?xml version="1.0" encoding="UTF-8" standalone="no" ?><gpx xmlns="http://www.topografix.com/GPX/1/1" xmlns:gpxx="http://www.garmin.com/xmlschemas/GpxExtensions/v3" xmlns:wptx1="http://www.garmin.com/xmlschemas/WaypointExtension/v1" xmlns:gpxtpx="http://www.garmin.com/xmlschemas/TrackPointExtension/v1" creator="GuideVTT.com" version="1.1" xmlns:xsi="http://www.w3.org/2001/XMLSchema-instance" xsi:schemaLocation="http://www.topografix.com/GPX/1/1 http://www.topografix.com/GPX/1/1/gpx.xsd http://www.garmin.com/xmlschemas/GpxExtensions/v3 http://www8.garmin.com/xmlschemas/GpxExtensionsv3.xsd http://www.garmin.com/xmlschemas/WaypointExtension/v1 http://www8.garmin.com/xmlschemas/WaypointExtensionv1.xsd http://www.garmin.com/xmlschemas/TrackPointExtension/v1 http://www.garmin.com/xmlschemas/TrackPointExtensionv1.xsd">
<metadata><link href="http://www.garmin.com"><text>Garmin International</text></link><time>2013-06-22T15:13:50Z</time></metadata>
<trk><name>riggisalp-hohmattli.gpx</name><extensions><gpxx:TrackExtension><gpxx:DisplayColor>Cyan</gpxx:DisplayColor></gpxx:TrackExtension></extensions><trkseg>
<trkpt lat="46.69301033" lon="7.29790449"><ele>985.488525</ele><time>2009-08-17T13:00:05Z</time></trkpt>
<trkpt lat="46.69301033" lon="7.29790449"><ele>985.969238</ele><time>2009-08-17T13:00:25Z</time></trkpt>
<trkpt lat="46.69324636" lon="7.29796886"><ele>985.488525</ele><time>2009-08-17T13:00:34Z</time></trkpt>
<trkpt lat="46.69328928" lon="7.29796886"><ele>985.488525</ele><time>2009-08-17T13:00:35Z</time></trkpt>
<trkpt lat="46.69348240" lon="7.29801178"><ele>985.008057</ele><time>2009-08-17T13:00:40Z</time></trkpt>
<trkpt lat="46.69365406" lon="7.29814053"><ele>985.008057</ele><time>2009-08-17T13:00:44Z</time></trkpt>
<trkpt lat="46.69371843" lon="7.29818344"><ele>985.008057</ele><time>2009-08-17T13:00:45Z</time></trkpt>
<trkpt lat="46.69391155" lon="7.29829073"><ele>984.046631</ele><time>2009-08-17T13:00:49Z</time></trkpt>
<trkpt lat="46.69382572" lon="7.29831219"><ele>983.085205</ele><time>2009-08-17T13:00:53Z</time></trkpt>
<trkpt lat="46.69373989" lon="7.29829073"><ele>982.604736</ele><time>2009-08-17T13:00:55Z</time></trkpt>
<trkpt lat="46.69356823" lon="7.29835510"><ele>981.162842</ele><time>2009-08-17T13:00:59Z</time></trkpt>
<trkpt lat="46.69339657" lon="7.29831219"><ele>980.201416</ele><time>2009-08-17T13:01:05Z</time></trkpt>
<trkpt lat="46.69335365" lon="7.29833364"><ele>980.682129</ele><time>2009-08-17T13:01:07Z</time></trkpt>
<trkpt lat="46.69322491" lon="7.29831219"><ele>980.682129</ele><time>2009-08-17T13:01:12Z</time></trkpt>
<trkpt lat="46.69309616" lon="7.29820490"><ele>980.682129</ele><time>2009-08-17T13:01:18Z</time></trkpt>
<trkpt lat="46.69292450" lon="7.29805470"><ele>981.643311</ele><time>2009-08-17T13:01:24Z</time></trkpt>
<trkpt lat="46.69286013" lon="7.29801178"><ele>982.604736</ele><time>2009-08-17T13:01:27Z</time></trkpt>
<trkpt lat="46.69275284" lon="7.29786158"><ele>983.085205</ele><time>2009-08-17T13:01:31Z</time></trkpt>
<trkpt lat="46.69268847" lon="7.29773283"><ele>983.085205</ele><time>2009-08-17T13:01:35Z</time></trkpt>
<trkpt lat="46.69255972" lon="7.29753971"><ele>983.085205</ele><time>2009-08-17T13:01:42Z</time></trkpt>
<trkpt lat="46.69251680" lon="7.29745388"><ele>982.604736</ele><time>2009-08-17T13:01:48Z</time></trkpt>
<trkpt lat="46.69245243" lon="7.29741096"><ele>982.124023</ele><time>2009-08-17T13:01:51Z</time></trkpt>
<trkpt lat="46.69232368" lon="7.29734659"><ele>981.162842</ele><time>2009-08-17T13:01:55Z</time></trkpt>
<trkpt lat="46.69208765" lon="7.29728222"><ele>980.682129</ele><time>2009-08-17T13:02:02Z</time></trkpt>
<trkpt lat="46.69185162" lon="7.29721785"><ele>983.085205</ele><time>2009-08-17T13:02:10Z</time></trkpt>
<trkpt lat="46.69165850" lon="7.29726076"><ele>984.046631</ele><time>2009-08-17T13:02:17Z</time></trkpt>
<trkpt lat="46.69159412" lon="7.29730368"><ele>985.008057</ele><time>2009-08-17T13:02:20Z</time></trkpt>
<trkpt lat="46.69144392" lon="7.29741096"><ele>985.969238</ele><time>2009-08-17T13:02:27Z</time></trkpt>
<trkpt lat="46.69131517" lon="7.29741096"><ele>986.449951</ele><time>2009-08-17T13:02:34Z</time></trkpt>
<trkpt lat="46.69127226" lon="7.29741096"><ele>986.93042</ele><time>2009-08-17T13:02:37Z</time></trkpt>
<trkpt lat="46.69114351" lon="7.29738951"><ele>987.411133</ele><time>2009-08-17T13:02:44Z</time></trkpt>
<trkpt lat="46.69110060" lon="7.29736805"><ele>987.891846</ele><time>2009-08-17T13:02:46Z</time></trkpt>
<trkpt lat="46.69103622" lon="7.29732513"><ele>987.891846</ele><time>2009-08-17T13:02:50Z</time></trkpt>
<trkpt lat="46.69092894" lon="7.29723930"><ele>990.29541</ele><time>2009-08-17T13:02:56Z</time></trkpt>
<trkpt lat="46.69082165" lon="7.29713202"><ele>993.179199</ele><time>2009-08-17T13:03:03Z</time></trkpt>
<trkpt lat="46.69069290" lon="7.29704618"><ele>995.101807</ele><time>2009-08-17T13:03:09Z</time></trkpt>
<trkpt lat="46.69052124" lon="7.29696035"><ele>997.024414</ele><time>2009-08-17T13:03:18Z</time></trkpt>
<trkpt lat="46.69037104" lon="7.29687452"><ele>998.947021</ele><time>2009-08-17T13:03:28Z</time></trkpt>
<trkpt lat="46.69019938" lon="7.29676723"><ele>1002.311523</ele><time>2009-08-17T13:03:38Z</time></trkpt>
<trkpt lat="46.69017792" lon="7.29676723"><ele>1002.311523</ele><time>2009-08-17T13:03:39Z</time></trkpt>
<trkpt lat="46.68996334" lon="7.29674578"><ele>1003.272949</ele><time>2009-08-17T13:03:48Z</time></trkpt>
<trkpt lat="46.68968439" lon="7.29674578"><ele>1006.156982</ele><time>2009-08-17T13:03:57Z</time></trkpt>
<trkpt lat="46.68955564" lon="7.29674578"><ele>1007.599121</ele><time>2009-08-17T13:04:04Z</time></trkpt>
<trkpt lat="46.68953419" lon="7.29674578"><ele>1008.560303</ele><time>2009-08-17T13:04:08Z</time></trkpt>
<trkpt lat="46.68946981" lon="7.29674578"><ele>1009.521729</ele><time>2009-08-17T13:04:18Z</time></trkpt>
<trkpt lat="46.68938398" lon="7.29674578"><ele>1009.521729</ele><time>2009-08-17T13:04:22Z</time></trkpt>
<trkpt lat="46.68921232" lon="7.29681015"><ele>1008.560303</ele><time>2009-08-17T13:04:29Z</time></trkpt>
<trkpt lat="46.68906212" lon="7.29678869"><ele>1008.560303</ele><time>2009-08-17T13:04:36Z</time></trkpt>
<trkpt lat="46.68897629" lon="7.29672432"><ele>1008.079834</ele><time>2009-08-17T13:04:44Z</time></trkpt>
<trkpt lat="46.68889046" lon="7.29668140"><ele>1008.560303</ele><time>2009-08-17T13:04:53Z</time></trkpt>
<trkpt lat="46.68886900" lon="7.29663849"><ele>1009.041016</ele><time>2009-08-17T13:05:03Z</time></trkpt>
<trkpt lat="46.68886900" lon="7.29661703"><ele>1009.041016</ele><time>2009-08-17T13:05:04Z</time></trkpt>
<trkpt lat="46.68876171" lon="7.29657412"><ele>1010.963623</ele><time>2009-08-17T13:05:09Z</time></trkpt>
<trkpt lat="46.68835402" lon="7.29663849"><ele>1012.405518</ele><time>2009-08-17T13:05:20Z</time></trkpt>
<trkpt lat="46.68777466" lon="7.29659557"><ele>1012.88623</ele><time>2009-08-17T13:05:34Z</time></trkpt>
<trkpt lat="46.68773174" lon="7.29659557"><ele>1012.88623</ele><time>2009-08-17T13:05:35Z</time></trkpt>
<trkpt lat="46.68710947" lon="7.29646683"><ele>1012.88623</ele><time>2009-08-17T13:05:50Z</time></trkpt>
<trkpt lat="46.68653011" lon="7.29638100"><ele>1013.366943</ele><time>2009-08-17T13:06:04Z</time></trkpt>
<trkpt lat="46.68592930" lon="7.29629517"><ele>1014.808838</ele><time>2009-08-17T13:06:18Z</time></trkpt>
<trkpt lat="46.68530703" lon="7.29612350"><ele>1016.731445</ele><time>2009-08-17T13:06:34Z</time></trkpt>
<trkpt lat="46.68479204" lon="7.29586601"><ele>1017.692627</ele><time>2009-08-17T13:06:48Z</time></trkpt>
<trkpt lat="46.68449163" lon="7.29565144"><ele>1019.134766</ele><time>2009-08-17T13:06:58Z</time></trkpt>
<trkpt lat="46.68421268" lon="7.29554415"><ele>1021.538086</ele><time>2009-08-17T13:07:08Z</time></trkpt>
<trkpt lat="46.68414831" lon="7.29552269"><ele>1022.018799</ele><time>2009-08-17T13:07:11Z</time></trkpt>
<trkpt lat="46.68412685" lon="7.29560852"><ele>1022.980225</ele><time>2009-08-17T13:07:17Z</time></trkpt>
<trkpt lat="46.68412685" lon="7.29558706"><ele>1019.615479</ele><time>2009-08-17T13:07:38Z</time></trkpt>
<trkpt lat="46.68412685" lon="7.29554415"><ele>1019.134766</ele><time>2009-08-17T13:07:41Z</time></trkpt>
<trkpt lat="46.68401957" lon="7.29560852"><ele>1020.096191</ele><time>2009-08-17T13:07:49Z</time></trkpt>
<trkpt lat="46.68395519" lon="7.29573727"><ele>1022.499512</ele><time>2009-08-17T13:07:56Z</time></trkpt>
<trkpt lat="46.68395519" lon="7.29578018"><ele>1022.980225</ele><time>2009-08-17T13:07:58Z</time></trkpt>
<trkpt lat="46.68389082" lon="7.29593039"><ele>1026.344727</ele><time>2009-08-17T13:08:07Z</time></trkpt>
<trkpt lat="46.68384790" lon="7.29603767"><ele>1029.228516</ele><time>2009-08-17T13:08:13Z</time></trkpt>
<trkpt lat="46.68380499" lon="7.29627371"><ele>1033.554443</ele><time>2009-08-17T13:08:25Z</time></trkpt>
<trkpt lat="46.68374062" lon="7.29653120"><ele>1037.880615</ele><time>2009-08-17T13:08:39Z</time></trkpt>
<trkpt lat="46.68382645" lon="7.29672432"><ele>1042.206543</ele><time>2009-08-17T13:08:51Z</time></trkpt>
<trkpt lat="46.68395519" lon="7.29689598"><ele>1046.532471</ele><time>2009-08-17T13:09:04Z</time></trkpt>
<trkpt lat="46.68401957" lon="7.29713202"><ele>1048.454834</ele><time>2009-08-17T13:09:16Z</time></trkpt>
<trkpt lat="46.68404102" lon="7.29736805"><ele>1051.81958</ele><time>2009-08-17T13:09:29Z</time></trkpt>
<trkpt lat="46.68408394" lon="7.29756117"><ele>1056.145508</ele><time>2009-08-17T13:09:40Z</time></trkpt>
<trkpt lat="46.68412685" lon="7.29779720"><ele>1062.874756</ele><time>2009-08-17T13:09:53Z</time></trkpt>
<trkpt lat="46.68412685" lon="7.29779720"><ele>1063.835938</ele><time>2009-08-17T13:09:54Z</time></trkpt>
<trkpt lat="46.68419123" lon="7.29794741"><ele>1065.758789</ele><time>2009-08-17T13:10:03Z</time></trkpt>
<trkpt lat="46.68429852" lon="7.29811907"><ele>1066.239258</ele><time>2009-08-17T13:10:14Z</time></trkpt>
<trkpt lat="46.68442726" lon="7.29831219"><ele>1066.239258</ele><time>2009-08-17T13:10:26Z</time></trkpt>
<trkpt lat="46.68449163" lon="7.29852676"><ele>1069.123535</ele><time>2009-08-17T13:10:39Z</time></trkpt>
<trkpt lat="46.68453455" lon="7.29878426"><ele>1071.526611</ele><time>2009-08-17T13:10:52Z</time></trkpt>
<trkpt lat="46.68459892" lon="7.29904175"><ele>1074.891357</ele><time>2009-08-17T13:11:06Z</time></trkpt>
<trkpt lat="46.68470621" lon="7.29914904"><ele>1074.891357</ele><time>2009-08-17T13:11:16Z</time></trkpt>
<trkpt lat="46.68483496" lon="7.29927778"><ele>1074.410645</ele><time>2009-08-17T13:11:27Z</time></trkpt>
<trkpt lat="46.68498516" lon="7.29944944"><ele>1075.371826</ele><time>2009-08-17T13:11:37Z</time></trkpt>
<trkpt lat="46.68502808" lon="7.29970694"><ele>1074.891357</ele><time>2009-08-17T13:11:48Z</time></trkpt>
<trkpt lat="46.68498516" lon="7.29996443"><ele>1076.813965</ele><time>2009-08-17T13:12:01Z</time></trkpt>
<trkpt lat="46.68498516" lon="7.30020046"><ele>1079.697754</ele><time>2009-08-17T13:12:14Z</time></trkpt>
<trkpt lat="46.68498516" lon="7.30024338"><ele>1080.178467</ele><time>2009-08-17T13:12:16Z</time></trkpt>
<trkpt lat="46.68502808" lon="7.30032921"><ele>1081.139893</ele><time>2009-08-17T13:12:21Z</time></trkpt>
<trkpt lat="46.68504953" lon="7.30039358"><ele>1081.139893</ele><time>2009-08-17T13:12:24Z</time></trkpt>
<trkpt lat="46.68507099" lon="7.30050087"><ele>1084.023926</ele><time>2009-08-17T13:12:31Z</time></trkpt>
<trkpt lat="46.68507099" lon="7.30052233"><ele>1084.504639</ele><time>2009-08-17T13:12:32Z</time></trkpt>
<trkpt lat="46.68511391" lon="7.30056524"><ele>1084.985352</ele><time>2009-08-17T13:12:36Z</time></trkpt>
<trkpt lat="46.68511391" lon="7.30065107"><ele>1085.46582</ele><time>2009-08-17T13:12:41Z</time></trkpt>
<trkpt lat="46.68502808" lon="7.30067253"><ele>1086.907715</ele><time>2009-08-17T13:12:48Z</time></trkpt>
<trkpt lat="46.68492079" lon="7.30052233"><ele>1087.869141</ele><time>2009-08-17T13:12:58Z</time></trkpt>
<trkpt lat="46.68479204" lon="7.30037212"><ele>1089.791748</ele><time>2009-08-17T13:13:10Z</time></trkpt>
<trkpt lat="46.68462038" lon="7.30030775"><ele>1092.675781</ele><time>2009-08-17T13:13:23Z</time></trkpt>
<trkpt lat="46.68447018" lon="7.30028629"><ele>1093.636963</ele><time>2009-08-17T13:13:34Z</time></trkpt>
<trkpt lat="46.68434143" lon="7.30024338"><ele>1095.55957</ele><time>2009-08-17T13:13:44Z</time></trkpt>
<trkpt lat="46.68425560" lon="7.30022192"><ele>1094.598145</ele><time>2009-08-17T13:13:51Z</time></trkpt>
<trkpt lat="46.68410540" lon="7.30011463"><ele>1094.117676</ele><time>2009-08-17T13:14:04Z</time></trkpt>
<trkpt lat="46.68399811" lon="7.30005026"><ele>1094.598145</ele><time>2009-08-17T13:14:15Z</time></trkpt>
<trkpt lat="46.68382645" lon="7.30011463"><ele>1095.078857</ele><time>2009-08-17T13:14:28Z</time></trkpt>
<trkpt lat="46.68365479" lon="7.30035067"><ele>1097.001465</ele><time>2009-08-17T13:14:43Z</time></trkpt>
<trkpt lat="46.68352604" lon="7.30043650"><ele>1099.885498</ele><time>2009-08-17T13:14:54Z</time></trkpt>
<trkpt lat="46.68333292" lon="7.30047941"><ele>1101.80835</ele><time>2009-08-17T13:15:09Z</time></trkpt>
<trkpt lat="46.68318272" lon="7.30052233"><ele>1102.288818</ele><time>2009-08-17T13:15:21Z</time></trkpt>
<trkpt lat="46.68298960" lon="7.30056524"><ele>1103.730957</ele><time>2009-08-17T13:15:34Z</time></trkpt>
<trkpt lat="46.68286085" lon="7.30071545"><ele>1104.21167</ele><time>2009-08-17T13:15:45Z</time></trkpt>
<trkpt lat="46.68275356" lon="7.30093002"><ele>1107.095459</ele><time>2009-08-17T13:15:58Z</time></trkpt>
<trkpt lat="46.68273211" lon="7.30116606"><ele>1110.459961</ele><time>2009-08-17T13:16:09Z</time></trkpt>
<trkpt lat="46.68273211" lon="7.30140209"><ele>1112.863281</ele><time>2009-08-17T13:16:21Z</time></trkpt>
<trkpt lat="46.68275356" lon="7.30148792"><ele>1113.824463</ele><time>2009-08-17T13:16:25Z</time></trkpt>
<trkpt lat="46.68281794" lon="7.30165958"><ele>1116.228027</ele><time>2009-08-17T13:16:34Z</time></trkpt>
<trkpt lat="46.68294668" lon="7.30178833"><ele>1117.669922</ele><time>2009-08-17T13:16:44Z</time></trkpt>
<trkpt lat="46.68309689" lon="7.30185270"><ele>1119.112061</ele><time>2009-08-17T13:16:56Z</time></trkpt>
<trkpt lat="46.68324709" lon="7.30195999"><ele>1120.073242</ele><time>2009-08-17T13:17:09Z</time></trkpt>
<trkpt lat="46.68335438" lon="7.30208874"><ele>1121.99585</ele><time>2009-08-17T13:17:19Z</time></trkpt>
<trkpt lat="46.68337584" lon="7.30213165"><ele>1120.553955</ele><time>2009-08-17T13:17:26Z</time></trkpt>
<trkpt lat="46.68337584" lon="7.30211020"><ele>1119.592773</ele><time>2009-08-17T13:18:33Z</time></trkpt>
<trkpt lat="46.68344021" lon="7.30213165"><ele>1118.150635</ele><time>2009-08-17T13:18:44Z</time></trkpt>
<trkpt lat="46.68350458" lon="7.30217457"><ele>1118.150635</ele><time>2009-08-17T13:18:49Z</time></trkpt>
<trkpt lat="46.68367624" lon="7.30221748"><ele>1120.553955</ele><time>2009-08-17T13:19:00Z</time></trkpt>
<trkpt lat="46.68380499" lon="7.30232477"><ele>1122.476563</ele><time>2009-08-17T13:19:11Z</time></trkpt>
<trkpt lat="46.68395519" lon="7.30249643"><ele>1126.321777</ele><time>2009-08-17T13:19:24Z</time></trkpt>
<trkpt lat="46.68404102" lon="7.30268955"><ele>1127.283203</ele><time>2009-08-17T13:19:36Z</time></trkpt>
<trkpt lat="46.68410540" lon="7.30283976"><ele>1128.244385</ele><time>2009-08-17T13:19:45Z</time></trkpt>
<trkpt lat="46.68412685" lon="7.30286121"><ele>1128.725098</ele><time>2009-08-17T13:19:46Z</time></trkpt>
<trkpt lat="46.68414831" lon="7.30288267"><ele>1129.686279</ele><time>2009-08-17T13:19:48Z</time></trkpt>
<trkpt lat="46.68427706" lon="7.30294704"><ele>1130.647705</ele><time>2009-08-17T13:19:57Z</time></trkpt>
<trkpt lat="46.68442726" lon="7.30290413"><ele>1130.647705</ele><time>2009-08-17T13:20:07Z</time></trkpt>
<trkpt lat="46.68449163" lon="7.30290413"><ele>1131.608887</ele><time>2009-08-17T13:20:11Z</time></trkpt>
<trkpt lat="46.68455601" lon="7.30290413"><ele>1132.570557</ele><time>2009-08-17T13:20:16Z</time></trkpt>
<trkpt lat="46.68472767" lon="7.30290413"><ele>1133.531738</ele><time>2009-08-17T13:20:28Z</time></trkpt>
<trkpt lat="46.68492079" lon="7.30279684"><ele>1134.493164</ele><time>2009-08-17T13:20:43Z</time></trkpt>
<trkpt lat="46.68496370" lon="7.30275393"><ele>1134.493164</ele><time>2009-08-17T13:20:46Z</time></trkpt>
<trkpt lat="46.68502808" lon="7.30273247"><ele>1134.973877</ele><time>2009-08-17T13:20:50Z</time></trkpt>
<trkpt lat="46.68524265" lon="7.30260372"><ele>1134.973877</ele><time>2009-08-17T13:21:06Z</time></trkpt>
<trkpt lat="46.68537140" lon="7.30241060"><ele>1135.454346</ele><time>2009-08-17T13:21:19Z</time></trkpt>
<trkpt lat="46.68545723" lon="7.30228186"><ele>1136.415771</ele><time>2009-08-17T13:21:28Z</time></trkpt>
<trkpt lat="46.68552160" lon="7.30223894"><ele>1136.415771</ele><time>2009-08-17T13:21:33Z</time></trkpt>
<trkpt lat="46.68560743" lon="7.30226040"><ele>1136.89624</ele><time>2009-08-17T13:21:39Z</time></trkpt>
<trkpt lat="46.68567181" lon="7.30230331"><ele>1138.338379</ele><time>2009-08-17T13:21:45Z</time></trkpt>
<trkpt lat="46.68575764" lon="7.30234623"><ele>1139.780273</ele><time>2009-08-17T13:21:51Z</time></trkpt>
<trkpt lat="46.68592930" lon="7.30243206"><ele>1140.260986</ele><time>2009-08-17T13:22:00Z</time></trkpt>
<trkpt lat="46.68618679" lon="7.30251789"><ele>1139.299561</ele><time>2009-08-17T13:22:09Z</time></trkpt>
<trkpt lat="46.68640137" lon="7.30253935"><ele>1137.857666</ele><time>2009-08-17T13:22:16Z</time></trkpt>
<trkpt lat="46.68657303" lon="7.30258226"><ele>1136.89624</ele><time>2009-08-17T13:22:23Z</time></trkpt>
<trkpt lat="46.68676615" lon="7.30264664"><ele>1137.857666</ele><time>2009-08-17T13:22:29Z</time></trkpt>
<trkpt lat="46.68691635" lon="7.30279684"><ele>1138.338379</ele><time>2009-08-17T13:22:35Z</time></trkpt>
<trkpt lat="46.68713093" lon="7.30292559"><ele>1143.144775</ele><time>2009-08-17T13:22:41Z</time></trkpt>
<trkpt lat="46.68728113" lon="7.30303288"><ele>1148.912842</ele><time>2009-08-17T13:22:46Z</time></trkpt>
<trkpt lat="46.68766737" lon="7.30311871"><ele>1154.200195</ele><time>2009-08-17T13:22:55Z</time></trkpt>
<trkpt lat="46.68790340" lon="7.30331182"><ele>1156.122559</ele><time>2009-08-17T13:23:01Z</time></trkpt>
<trkpt lat="46.68822527" lon="7.30374098"><ele>1158.525879</ele><time>2009-08-17T13:23:12Z</time></trkpt>
<trkpt lat="46.68859005" lon="7.30399847"><ele>1157.083984</ele><time>2009-08-17T13:23:22Z</time></trkpt>
<trkpt lat="46.68884754" lon="7.30401993"><ele>1157.083984</ele><time>2009-08-17T13:23:30Z</time></trkpt>
<trkpt lat="46.68882608" lon="7.30417013"><ele>1159.006592</ele><time>2009-08-17T13:23:37Z</time></trkpt>
<trkpt lat="46.68863297" lon="7.30427742"><ele>1164.774658</ele><time>2009-08-17T13:23:48Z</time></trkpt>
<trkpt lat="46.68859005" lon="7.30425596"><ele>1167.658447</ele><time>2009-08-17T13:23:53Z</time></trkpt>
<trkpt lat="46.68848276" lon="7.30421305"><ele>1172.465088</ele><time>2009-08-17T13:24:02Z</time></trkpt>
<trkpt lat="46.68835402" lon="7.30414867"><ele>1177.752197</ele><time>2009-08-17T13:24:12Z</time></trkpt>
<trkpt lat="46.68820381" lon="7.30410576"><ele>1181.597656</ele><time>2009-08-17T13:24:24Z</time></trkpt>
<trkpt lat="46.68803215" lon="7.30399847"><ele>1185.923584</ele><time>2009-08-17T13:24:36Z</time></trkpt>
<trkpt lat="46.68801069" lon="7.30397701"><ele>1186.404297</ele><time>2009-08-17T13:24:39Z</time></trkpt>
<trkpt lat="46.68792486" lon="7.30395555"><ele>1188.807617</ele><time>2009-08-17T13:24:47Z</time></trkpt>
<trkpt lat="46.68775320" lon="7.30397701"><ele>1192.652832</ele><time>2009-08-17T13:24:59Z</time></trkpt>
<trkpt lat="46.68760300" lon="7.30406284"><ele>1193.133301</ele><time>2009-08-17T13:25:12Z</time></trkpt>
<trkpt lat="46.68756008" lon="7.30410576"><ele>1193.614014</ele><time>2009-08-17T13:25:15Z</time></trkpt>
<trkpt lat="46.68740988" lon="7.30425596"><ele>1195.055908</ele><time>2009-08-17T13:25:28Z</time></trkpt>
<trkpt lat="46.68736696" lon="7.30434179"><ele>1195.536621</ele><time>2009-08-17T13:25:33Z</time></trkpt>
<trkpt lat="46.68728113" lon="7.30451345"><ele>1195.536621</ele><time>2009-08-17T13:25:44Z</time></trkpt>
<trkpt lat="46.68713093" lon="7.30470657"><ele>1198.901367</ele><time>2009-08-17T13:26:00Z</time></trkpt>
<trkpt lat="46.68698072" lon="7.30470657"><ele>1199.38208</ele><time>2009-08-17T13:26:13Z</time></trkpt>
<trkpt lat="46.68695927" lon="7.30468512"><ele>1199.38208</ele><time>2009-08-17T13:26:14Z</time></trkpt>
<trkpt lat="46.68691635" lon="7.30466366"><ele>1199.38208</ele><time>2009-08-17T13:26:18Z</time></trkpt>
<trkpt lat="46.68687344" lon="7.30457783"><ele>1200.823975</ele><time>2009-08-17T13:26:23Z</time></trkpt>
<trkpt lat="46.68676615" lon="7.30440617"><ele>1201.7854</ele><time>2009-08-17T13:26:35Z</time></trkpt>
<trkpt lat="46.68668032" lon="7.30423450"><ele>1205.630615</ele><time>2009-08-17T13:26:48Z</time></trkpt>
<trkpt lat="46.68661594" lon="7.30408430"><ele>1206.591797</ele><time>2009-08-17T13:26:58Z</time></trkpt>
<trkpt lat="46.68657303" lon="7.30386972"><ele>1207.07251</ele><time>2009-08-17T13:27:11Z</time></trkpt>
<trkpt lat="46.68655157" lon="7.30382681"><ele>1207.553223</ele><time>2009-08-17T13:27:14Z</time></trkpt>
<trkpt lat="46.68646574" lon="7.30363369"><ele>1208.514404</ele><time>2009-08-17T13:27:27Z</time></trkpt>
<trkpt lat="46.68633699" lon="7.30365515"><ele>1209.956299</ele><time>2009-08-17T13:27:39Z</time></trkpt>
<trkpt lat="46.68633699" lon="7.30367661"><ele>1209.956299</ele><time>2009-08-17T13:27:40Z</time></trkpt>
<trkpt lat="46.68629408" lon="7.30380535"><ele>1211.87915</ele><time>2009-08-17T13:27:49Z</time></trkpt>
<trkpt lat="46.68629408" lon="7.30404139"><ele>1214.282471</ele><time>2009-08-17T13:28:02Z</time></trkpt>
<trkpt lat="46.68629408" lon="7.30432034"><ele>1215.243896</ele><time>2009-08-17T13:28:17Z</time></trkpt>
<trkpt lat="46.68616533" lon="7.30455637"><ele>1217.646973</ele><time>2009-08-17T13:28:31Z</time></trkpt>
<trkpt lat="46.68605804" lon="7.30470657"><ele>1220.531006</ele><time>2009-08-17T13:28:43Z</time></trkpt>
<trkpt lat="46.68592930" lon="7.30485678"><ele>1223.895508</ele><time>2009-08-17T13:28:56Z</time></trkpt>
<trkpt lat="46.68582201" lon="7.30507135"><ele>1226.298828</ele><time>2009-08-17T13:29:11Z</time></trkpt>
<trkpt lat="46.68571472" lon="7.30528593"><ele>1229.663574</ele><time>2009-08-17T13:29:25Z</time></trkpt>
<trkpt lat="46.68562889" lon="7.30539322"><ele>1232.066895</ele><time>2009-08-17T13:29:35Z</time></trkpt>
<trkpt lat="46.68558598" lon="7.30543613"><ele>1233.508789</ele><time>2009-08-17T13:29:40Z</time></trkpt>
<trkpt lat="46.68556452" lon="7.30545759"><ele>1233.989502</ele><time>2009-08-17T13:29:42Z</time></trkpt>
<trkpt lat="46.68541431" lon="7.30565071"><ele>1233.508789</ele><time>2009-08-17T13:29:57Z</time></trkpt>
<trkpt lat="46.68528557" lon="7.30582237"><ele>1233.989502</ele><time>2009-08-17T13:30:12Z</time></trkpt>
<trkpt lat="46.68513536" lon="7.30599403"><ele>1236.392822</ele><time>2009-08-17T13:30:27Z</time></trkpt>
<trkpt lat="46.68504953" lon="7.30616570"><ele>1238.796143</ele><time>2009-08-17T13:30:39Z</time></trkpt>
<trkpt lat="46.68502808" lon="7.30620861"><ele>1239.757324</ele><time>2009-08-17T13:30:42Z</time></trkpt>
<trkpt lat="46.68496370" lon="7.30623007"><ele>1241.679932</ele><time>2009-08-17T13:30:50Z</time></trkpt>
<trkpt lat="46.68489933" lon="7.30625153"><ele>1245.044678</ele><time>2009-08-17T13:30:58Z</time></trkpt>
<trkpt lat="46.68479204" lon="7.30631590"><ele>1246.967285</ele><time>2009-08-17T13:31:08Z</time></trkpt>
<trkpt lat="46.68464184" lon="7.30653048"><ele>1245.525391</ele><time>2009-08-17T13:31:23Z</time></trkpt>
<trkpt lat="46.68455601" lon="7.30668068"><ele>1244.563965</ele><time>2009-08-17T13:31:35Z</time></trkpt>
<trkpt lat="46.68444872" lon="7.30670214"><ele>1242.160645</ele><time>2009-08-17T13:31:46Z</time></trkpt>
<trkpt lat="46.68438435" lon="7.30674505"><ele>1240.238037</ele><time>2009-08-17T13:31:51Z</time></trkpt>
<trkpt lat="46.68427706" lon="7.30687380"><ele>1241.199219</ele><time>2009-08-17T13:32:01Z</time></trkpt>
<trkpt lat="46.68419123" lon="7.30700254"><ele>1240.238037</ele><time>2009-08-17T13:32:10Z</time></trkpt>
<trkpt lat="46.68399811" lon="7.30695963"><ele>1245.525391</ele><time>2009-08-17T13:32:20Z</time></trkpt>
<trkpt lat="46.68389082" lon="7.30687380"><ele>1247.447998</ele><time>2009-08-17T13:32:29Z</time></trkpt>
<trkpt lat="46.68380499" lon="7.30678797"><ele>1249.370605</ele><time>2009-08-17T13:32:37Z</time></trkpt>
<trkpt lat="46.68378353" lon="7.30678797"><ele>1249.370605</ele><time>2009-08-17T13:32:38Z</time></trkpt>
<trkpt lat="46.68369770" lon="7.30676651"><ele>1250.8125</ele><time>2009-08-17T13:32:44Z</time></trkpt>
<trkpt lat="46.68352604" lon="7.30685234"><ele>1254.657715</ele><time>2009-08-17T13:32:55Z</time></trkpt>
<trkpt lat="46.68341875" lon="7.30695963"><ele>1255.619141</ele><time>2009-08-17T13:33:07Z</time></trkpt>
<trkpt lat="46.68337584" lon="7.30698109"><ele>1255.619141</ele><time>2009-08-17T13:33:13Z</time></trkpt>
<trkpt lat="46.68326855" lon="7.30700254"><ele>1256.099609</ele><time>2009-08-17T13:33:22Z</time></trkpt>
<trkpt lat="46.68309689" lon="7.30706692"><ele>1254.177246</ele><time>2009-08-17T13:33:32Z</time></trkpt>
<trkpt lat="46.68283939" lon="7.30713129"><ele>1259.944824</ele><time>2009-08-17T13:33:45Z</time></trkpt>
<trkpt lat="46.68264627" lon="7.30726004"><ele>1268.116211</ele><time>2009-08-17T13:33:57Z</time></trkpt>
<trkpt lat="46.68243170" lon="7.30738878"><ele>1271.000244</ele><time>2009-08-17T13:34:11Z</time></trkpt>
<trkpt lat="46.68226004" lon="7.30764627"><ele>1277.249023</ele><time>2009-08-17T13:34:26Z</time></trkpt>
<trkpt lat="46.68208838" lon="7.30783939"><ele>1281.094238</ele><time>2009-08-17T13:34:40Z</time></trkpt>
<trkpt lat="46.68191671" lon="7.30801105"><ele>1282.536133</ele><time>2009-08-17T13:34:55Z</time></trkpt>
<trkpt lat="46.68176651" lon="7.30822563"><ele>1283.978027</ele><time>2009-08-17T13:35:08Z</time></trkpt>
<trkpt lat="46.68165922" lon="7.30846167"><ele>1285.419922</ele><time>2009-08-17T13:35:22Z</time></trkpt>
<trkpt lat="46.68168068" lon="7.30871916"><ele>1288.784668</ele><time>2009-08-17T13:35:35Z</time></trkpt>
<trkpt lat="46.68163776" lon="7.30893373"><ele>1292.149414</ele><time>2009-08-17T13:35:47Z</time></trkpt>
<trkpt lat="46.68161631" lon="7.30897665"><ele>1292.630127</ele><time>2009-08-17T13:35:50Z</time></trkpt>
<trkpt lat="46.68155193" lon="7.30906248"><ele>1294.55249</ele><time>2009-08-17T13:35:59Z</time></trkpt>
<trkpt lat="46.68148756" lon="7.30929852"><ele>1295.033203</ele><time>2009-08-17T13:36:09Z</time></trkpt>
<trkpt lat="46.68148756" lon="7.30942726"><ele>1294.55249</ele><time>2009-08-17T13:36:16Z</time></trkpt>
<trkpt lat="46.68146610" lon="7.30962038"><ele>1297.436523</ele><time>2009-08-17T13:36:27Z</time></trkpt>
<trkpt lat="46.68146610" lon="7.30977058"><ele>1300.320557</ele><time>2009-08-17T13:36:35Z</time></trkpt>
<trkpt lat="46.68148756" lon="7.30989933"><ele>1305.126953</ele><time>2009-08-17T13:36:43Z</time></trkpt>
<trkpt lat="46.68150902" lon="7.30998516"><ele>1307.530273</ele><time>2009-08-17T13:36:47Z</time></trkpt>
<trkpt lat="46.68153048" lon="7.31000662"><ele>1308.972412</ele><time>2009-08-17T13:36:49Z</time></trkpt>
<trkpt lat="46.68153048" lon="7.31009245"><ele>1312.336914</ele><time>2009-08-17T13:36:54Z</time></trkpt>
<trkpt lat="46.68155193" lon="7.31037140"><ele>1317.143555</ele><time>2009-08-17T13:37:06Z</time></trkpt>
<trkpt lat="46.68157339" lon="7.31069326"><ele>1316.182129</ele><time>2009-08-17T13:37:16Z</time></trkpt>
<trkpt lat="46.68148756" lon="7.31103659"><ele>1319.546875</ele><time>2009-08-17T13:37:27Z</time></trkpt>
<trkpt lat="46.68138027" lon="7.31144428"><ele>1319.546875</ele><time>2009-08-17T13:37:37Z</time></trkpt>
<trkpt lat="46.68127298" lon="7.31208801"><ele>1318.104736</ele><time>2009-08-17T13:37:52Z</time></trkpt>
<trkpt lat="46.68103695" lon="7.31258154"><ele>1319.066162</ele><time>2009-08-17T13:38:03Z</time></trkpt>
<trkpt lat="46.68086529" lon="7.31271029"><ele>1320.98877</ele><time>2009-08-17T13:38:13Z</time></trkpt>
<trkpt lat="46.68073654" lon="7.31296778"><ele>1322.430664</ele><time>2009-08-17T13:38:25Z</time></trkpt>
<trkpt lat="46.68065071" lon="7.31320381"><ele>1324.834229</ele><time>2009-08-17T13:38:38Z</time></trkpt>
<trkpt lat="46.68067217" lon="7.31341839"><ele>1326.276123</ele><time>2009-08-17T13:38:50Z</time></trkpt>
<trkpt lat="46.68069363" lon="7.31346130"><ele>1327.237549</ele><time>2009-08-17T13:38:59Z</time></trkpt>
<trkpt lat="46.68069363" lon="7.31348276"><ele>1327.718018</ele><time>2009-08-17T13:39:12Z</time></trkpt>
<trkpt lat="46.68069363" lon="7.31350422"><ele>1326.756836</ele><time>2009-08-17T13:40:05Z</time></trkpt>
<trkpt lat="46.68069363" lon="7.31350422"><ele>1325.79541</ele><time>2009-08-17T13:41:06Z</time></trkpt>
<trkpt lat="46.68069363" lon="7.31350422"><ele>1325.79541</ele><time>2009-08-17T13:41:09Z</time></trkpt>
<trkpt lat="46.68075800" lon="7.31356859"><ele>1325.314697</ele><time>2009-08-17T13:41:15Z</time></trkpt>
<trkpt lat="46.68075800" lon="7.31361151"><ele>1324.834229</ele><time>2009-08-17T13:41:17Z</time></trkpt>
<trkpt lat="46.68080091" lon="7.31378317"><ele>1323.872559</ele><time>2009-08-17T13:41:27Z</time></trkpt>
<trkpt lat="46.68080091" lon="7.31382608"><ele>1323.872559</ele><time>2009-08-17T13:41:29Z</time></trkpt>
<trkpt lat="46.68080091" lon="7.31389046"><ele>1323.872559</ele><time>2009-08-17T13:41:33Z</time></trkpt>
<trkpt lat="46.68082237" lon="7.31412649"><ele>1326.276123</ele><time>2009-08-17T13:41:45Z</time></trkpt>
<trkpt lat="46.68084383" lon="7.31419086"><ele>1327.237549</ele><time>2009-08-17T13:41:49Z</time></trkpt>
<trkpt lat="46.68080091" lon="7.31429815"><ele>1328.19873</ele><time>2009-08-17T13:41:55Z</time></trkpt>
<trkpt lat="46.68073654" lon="7.31449127"><ele>1330.602051</ele><time>2009-08-17T13:42:06Z</time></trkpt>
<trkpt lat="46.68056488" lon="7.31462002"><ele>1332.043945</ele><time>2009-08-17T13:42:19Z</time></trkpt>
<trkpt lat="46.68060780" lon="7.31481314"><ele>1334.447266</ele><time>2009-08-17T13:42:29Z</time></trkpt>
<trkpt lat="46.68080091" lon="7.31477022"><ele>1337.331055</ele><time>2009-08-17T13:42:40Z</time></trkpt>
<trkpt lat="46.68088675" lon="7.31470585"><ele>1340.695801</ele><time>2009-08-17T13:42:48Z</time></trkpt>
<trkpt lat="46.68101549" lon="7.31451273"><ele>1343.099121</ele><time>2009-08-17T13:43:00Z</time></trkpt>
<trkpt lat="46.68116570" lon="7.31434107"><ele>1346.463867</ele><time>2009-08-17T13:43:13Z</time></trkpt>
<trkpt lat="46.68125153" lon="7.31416941"><ele>1348.866943</ele><time>2009-08-17T13:43:24Z</time></trkpt>
<trkpt lat="46.68127298" lon="7.31397629"><ele>1348.866943</ele><time>2009-08-17T13:43:34Z</time></trkpt>
<trkpt lat="46.68135881" lon="7.31376171"><ele>1349.347656</ele><time>2009-08-17T13:43:46Z</time></trkpt>
<trkpt lat="46.68144464" lon="7.31376171"><ele>1350.789551</ele><time>2009-08-17T13:43:53Z</time></trkpt>
<trkpt lat="46.68157339" lon="7.31389046"><ele>1354.154297</ele><time>2009-08-17T13:44:04Z</time></trkpt>
<trkpt lat="46.68180943" lon="7.31395483"><ele>1355.596191</ele><time>2009-08-17T13:44:17Z</time></trkpt>
<trkpt lat="46.68202400" lon="7.31378317"><ele>1355.596191</ele><time>2009-08-17T13:44:31Z</time></trkpt>
<trkpt lat="46.68217421" lon="7.31361151"><ele>1356.557617</ele><time>2009-08-17T13:44:44Z</time></trkpt>
<trkpt lat="46.68232441" lon="7.31343985"><ele>1358.480225</ele><time>2009-08-17T13:44:57Z</time></trkpt>
<trkpt lat="46.68245316" lon="7.31326818"><ele>1360.402832</ele><time>2009-08-17T13:45:09Z</time></trkpt>
<trkpt lat="46.68247461" lon="7.31324673"><ele>1360.402832</ele><time>2009-08-17T13:45:10Z</time></trkpt>
<trkpt lat="46.68256044" lon="7.31305361"><ele>1362.325439</ele><time>2009-08-17T13:45:21Z</time></trkpt>
<trkpt lat="46.68268919" lon="7.31283903"><ele>1363.767334</ele><time>2009-08-17T13:45:34Z</time></trkpt>
<trkpt lat="46.68273211" lon="7.31258154"><ele>1368.093262</ele><time>2009-08-17T13:45:48Z</time></trkpt>
<trkpt lat="46.68268919" lon="7.31232405"><ele>1371.938477</ele><time>2009-08-17T13:46:02Z</time></trkpt>
<trkpt lat="46.68275356" lon="7.31204510"><ele>1375.783936</ele><time>2009-08-17T13:46:16Z</time></trkpt>
<trkpt lat="46.68279648" lon="7.31176615"><ele>1379.148438</ele><time>2009-08-17T13:46:30Z</time></trkpt>
<trkpt lat="46.68283939" lon="7.31150866"><ele>1382.032471</ele><time>2009-08-17T13:46:43Z</time></trkpt>
<trkpt lat="46.68296814" lon="7.31127262"><ele>1381.551758</ele><time>2009-08-17T13:46:57Z</time></trkpt>
<trkpt lat="46.68316126" lon="7.31114388"><ele>1379.62915</ele><time>2009-08-17T13:47:10Z</time></trkpt>
<trkpt lat="46.68337584" lon="7.31101513"><ele>1379.148438</ele><time>2009-08-17T13:47:24Z</time></trkpt>
<trkpt lat="46.68344021" lon="7.31101513"><ele>1380.109863</ele><time>2009-08-17T13:47:28Z</time></trkpt>
<trkpt lat="46.68350458" lon="7.31101513"><ele>1380.109863</ele><time>2009-08-17T13:47:33Z</time></trkpt>
<trkpt lat="46.68374062" lon="7.31110096"><ele>1380.590576</ele><time>2009-08-17T13:47:48Z</time></trkpt>
<trkpt lat="46.68397665" lon="7.31112242"><ele>1382.993652</ele><time>2009-08-17T13:48:03Z</time></trkpt>
<trkpt lat="46.68414831" lon="7.31095076"><ele>1384.916504</ele><time>2009-08-17T13:48:17Z</time></trkpt>
<trkpt lat="46.68434143" lon="7.31080055"><ele>1387.31958</ele><time>2009-08-17T13:48:31Z</time></trkpt>
<trkpt lat="46.68457747" lon="7.31086493"><ele>1387.31958</ele><time>2009-08-17T13:48:43Z</time></trkpt>
<trkpt lat="46.68479204" lon="7.31097221"><ele>1387.800293</ele><time>2009-08-17T13:48:55Z</time></trkpt>
<trkpt lat="46.68498516" lon="7.31097221"><ele>1389.723145</ele><time>2009-08-17T13:49:08Z</time></trkpt>
<trkpt lat="46.68519974" lon="7.31110096"><ele>1391.165039</ele><time>2009-08-17T13:49:24Z</time></trkpt>
<trkpt lat="46.68537140" lon="7.31122971"><ele>1393.568359</ele><time>2009-08-17T13:49:36Z</time></trkpt>
<trkpt lat="46.68554306" lon="7.31137991"><ele>1394.529541</ele><time>2009-08-17T13:49:49Z</time></trkpt>
<trkpt lat="46.68571472" lon="7.31150866"><ele>1396.932861</ele><time>2009-08-17T13:50:03Z</time></trkpt>
<trkpt lat="46.68586493" lon="7.31165886"><ele>1399.336182</ele><time>2009-08-17T13:50:17Z</time></trkpt>
<trkpt lat="46.68592930" lon="7.31185198"><ele>1402.700684</ele><time>2009-08-17T13:50:30Z</time></trkpt>
<trkpt lat="46.68599367" lon="7.31215239"><ele>1408.949463</ele><time>2009-08-17T13:50:47Z</time></trkpt>
<trkpt lat="46.68610096" lon="7.31240988"><ele>1413.755859</ele><time>2009-08-17T13:51:02Z</time></trkpt>
<trkpt lat="46.68616533" lon="7.31268883"><ele>1416.15918</ele><time>2009-08-17T13:51:16Z</time></trkpt>
<trkpt lat="46.68625116" lon="7.31288195"><ele>1419.043213</ele><time>2009-08-17T13:51:27Z</time></trkpt>
<trkpt lat="46.68616533" lon="7.31296778"><ele>1419.043213</ele><time>2009-08-17T13:51:34Z</time></trkpt>
<trkpt lat="46.68601513" lon="7.31281757"><ele>1421.927246</ele><time>2009-08-17T13:51:44Z</time></trkpt>
<trkpt lat="46.68592930" lon="7.31264591"><ele>1423.849854</ele><time>2009-08-17T13:51:53Z</time></trkpt>
<trkpt lat="46.68575764" lon="7.31264591"><ele>1425.291748</ele><time>2009-08-17T13:52:06Z</time></trkpt>
<trkpt lat="46.68565035" lon="7.31281757"><ele>1425.772461</ele><time>2009-08-17T13:52:16Z</time></trkpt>
<trkpt lat="46.68565035" lon="7.31296778"><ele>1427.695068</ele><time>2009-08-17T13:52:24Z</time></trkpt>
<trkpt lat="46.68569326" lon="7.31320381"><ele>1429.617676</ele><time>2009-08-17T13:52:37Z</time></trkpt>
<trkpt lat="46.68569326" lon="7.31324673"><ele>1430.579102</ele><time>2009-08-17T13:52:39Z</time></trkpt>
<trkpt lat="46.68569326" lon="7.31328964"><ele>1431.059814</ele><time>2009-08-17T13:52:41Z</time></trkpt>
<trkpt lat="46.68571472" lon="7.31352568"><ele>1433.943604</ele><time>2009-08-17T13:52:53Z</time></trkpt>
<trkpt lat="46.68571472" lon="7.31371880"><ele>1435.385498</ele><time>2009-08-17T13:53:04Z</time></trkpt>
<trkpt lat="46.68577909" lon="7.31389046"><ele>1439.71167</ele><time>2009-08-17T13:53:15Z</time></trkpt>
<trkpt lat="46.68577909" lon="7.31395483"><ele>1440.672852</ele><time>2009-08-17T13:53:18Z</time></trkpt>
<trkpt lat="46.68582201" lon="7.31412649"><ele>1443.076172</ele><time>2009-08-17T13:53:28Z</time></trkpt>
<trkpt lat="46.68586493" lon="7.31431961"><ele>1444.037598</ele><time>2009-08-17T13:53:38Z</time></trkpt>
<trkpt lat="46.68586493" lon="7.31440544"><ele>1444.518066</ele><time>2009-08-17T13:53:42Z</time></trkpt>
<trkpt lat="46.68586493" lon="7.31451273"><ele>1445.479492</ele><time>2009-08-17T13:53:47Z</time></trkpt>
<trkpt lat="46.68588638" lon="7.31477022"><ele>1446.440918</ele><time>2009-08-17T13:53:59Z</time></trkpt>
<trkpt lat="46.68577909" lon="7.31477022"><ele>1448.363281</ele><time>2009-08-17T13:54:08Z</time></trkpt>
<trkpt lat="46.68562889" lon="7.31457710"><ele>1448.363281</ele><time>2009-08-17T13:54:21Z</time></trkpt>
<trkpt lat="46.68541431" lon="7.31440544"><ele>1451.728027</ele><time>2009-08-17T13:54:40Z</time></trkpt>
<trkpt lat="46.68524265" lon="7.31434107"><ele>1454.131592</ele><time>2009-08-17T13:54:54Z</time></trkpt>
<trkpt lat="46.68513536" lon="7.31431961"><ele>1454.612061</ele><time>2009-08-17T13:55:04Z</time></trkpt>
<trkpt lat="46.68509245" lon="7.31431961"><ele>1455.573486</ele><time>2009-08-17T13:55:08Z</time></trkpt>
<trkpt lat="46.68489933" lon="7.31444836"><ele>1457.015381</ele><time>2009-08-17T13:55:24Z</time></trkpt>
<trkpt lat="46.68479204" lon="7.31466293"><ele>1460.379883</ele><time>2009-08-17T13:55:39Z</time></trkpt>
<trkpt lat="46.68468475" lon="7.31483459"><ele>1463.263916</ele><time>2009-08-17T13:55:52Z</time></trkpt>
<trkpt lat="46.68459892" lon="7.31498480"><ele>1465.186523</ele><time>2009-08-17T13:56:04Z</time></trkpt>
<trkpt lat="46.68449163" lon="7.31524229"><ele>1467.5896</ele><time>2009-08-17T13:56:20Z</time></trkpt>
<trkpt lat="46.68444872" lon="7.31545687"><ele>1470.473877</ele><time>2009-08-17T13:56:32Z</time></trkpt>
<trkpt lat="46.68438435" lon="7.31575727"><ele>1473.35791</ele><time>2009-08-17T13:56:49Z</time></trkpt>
<trkpt lat="46.68438435" lon="7.31599331"><ele>1476.241699</ele><time>2009-08-17T13:57:03Z</time></trkpt>
<trkpt lat="46.68442726" lon="7.31625080"><ele>1478.64502</ele><time>2009-08-17T13:57:17Z</time></trkpt>
<trkpt lat="46.68442726" lon="7.31652975"><ele>1481.04834</ele><time>2009-08-17T13:57:32Z</time></trkpt>
<trkpt lat="46.68444872" lon="7.31683016"><ele>1483.451416</ele><time>2009-08-17T13:57:48Z</time></trkpt>
<trkpt lat="46.68438435" lon="7.31704473"><ele>1485.374268</ele><time>2009-08-17T13:58:00Z</time></trkpt>
<trkpt lat="46.68436289" lon="7.31713057"><ele>1485.85498</ele><time>2009-08-17T13:58:05Z</time></trkpt>
<trkpt lat="46.68431997" lon="7.31719494"><ele>1486.335693</ele><time>2009-08-17T13:58:09Z</time></trkpt>
<trkpt lat="46.68427706" lon="7.31738806"><ele>1487.777588</ele><time>2009-08-17T13:58:19Z</time></trkpt>
<trkpt lat="46.68423414" lon="7.31768847"><ele>1489.700195</ele><time>2009-08-17T13:58:33Z</time></trkpt>
<trkpt lat="46.68414831" lon="7.31794596"><ele>1492.103516</ele><time>2009-08-17T13:58:47Z</time></trkpt>
<trkpt lat="46.68406248" lon="7.31813908"><ele>1495.468018</ele><time>2009-08-17T13:59:00Z</time></trkpt>
<trkpt lat="46.68391228" lon="7.31835365"><ele>1498.351807</ele><time>2009-08-17T13:59:15Z</time></trkpt>
<trkpt lat="46.68378353" lon="7.31856823"><ele>1500.274902</ele><time>2009-08-17T13:59:29Z</time></trkpt>
<trkpt lat="46.68359041" lon="7.31876135"><ele>1503.639404</ele><time>2009-08-17T13:59:47Z</time></trkpt>
<trkpt lat="46.68354750" lon="7.31895447"><ele>1506.04248</ele><time>2009-08-17T13:59:58Z</time></trkpt>
<trkpt lat="46.68350458" lon="7.31921196"><ele>1508.445801</ele><time>2009-08-17T14:00:10Z</time></trkpt>
<trkpt lat="46.68356895" lon="7.31949091"><ele>1510.849121</ele><time>2009-08-17T14:00:24Z</time></trkpt>
<trkpt lat="46.68367624" lon="7.31985569"><ele>1511.329834</ele><time>2009-08-17T14:00:36Z</time></trkpt>
<trkpt lat="46.68369770" lon="7.32024193"><ele>1513.73291</ele><time>2009-08-17T14:00:49Z</time></trkpt>
<trkpt lat="46.68361187" lon="7.32060671"><ele>1515.175049</ele><time>2009-08-17T14:01:00Z</time></trkpt>
<trkpt lat="46.68339729" lon="7.32116461"><ele>1514.213623</ele><time>2009-08-17T14:01:12Z</time></trkpt>
<trkpt lat="46.68320417" lon="7.32187271"><ele>1512.771729</ele><time>2009-08-17T14:01:22Z</time></trkpt>
<trkpt lat="46.68294668" lon="7.32213020"><ele>1511.810547</ele><time>2009-08-17T14:01:27Z</time></trkpt>
<trkpt lat="46.68268919" lon="7.32238770"><ele>1508.926514</ele><time>2009-08-17T14:01:31Z</time></trkpt>
<trkpt lat="46.68245316" lon="7.32260227"><ele>1504.600586</ele><time>2009-08-17T14:01:35Z</time></trkpt>
<trkpt lat="46.68243170" lon="7.32266665"><ele>1503.639404</ele><time>2009-08-17T14:01:36Z</time></trkpt>
<trkpt lat="46.68232441" lon="7.32283831"><ele>1499.793945</ele><time>2009-08-17T14:01:42Z</time></trkpt>
<trkpt lat="46.68230295" lon="7.32283831"><ele>1499.793945</ele><time>2009-08-17T14:01:43Z</time></trkpt>
<trkpt lat="46.68223858" lon="7.32283831"><ele>1498.351807</ele><time>2009-08-17T14:01:48Z</time></trkpt>
<trkpt lat="46.68210983" lon="7.32277393"><ele>1495.94873</ele><time>2009-08-17T14:01:53Z</time></trkpt>
<trkpt lat="46.68191671" lon="7.32270956"><ele>1493.54541</ele><time>2009-08-17T14:01:56Z</time></trkpt>
<trkpt lat="46.68168068" lon="7.32288122"><ele>1489.219482</ele><time>2009-08-17T14:02:00Z</time></trkpt>
<trkpt lat="46.68129444" lon="7.32318163"><ele>1481.528809</ele><time>2009-08-17T14:02:05Z</time></trkpt>
<trkpt lat="46.68123007" lon="7.32331038"><ele>1479.606201</ele><time>2009-08-17T14:02:06Z</time></trkpt>
<trkpt lat="46.68107986" lon="7.32350349"><ele>1475.760986</ele><time>2009-08-17T14:02:08Z</time></trkpt>
<trkpt lat="46.68084383" lon="7.32352495"><ele>1474.799805</ele><time>2009-08-17T14:02:12Z</time></trkpt>
<trkpt lat="46.68080091" lon="7.32350349"><ele>1475.280273</ele><time>2009-08-17T14:02:17Z</time></trkpt>
<trkpt lat="46.68077946" lon="7.32350349"><ele>1476.241699</ele><time>2009-08-17T14:02:27Z</time></trkpt>
<trkpt lat="46.68080091" lon="7.32350349"><ele>1476.241699</ele><time>2009-08-17T14:02:37Z</time></trkpt>
<trkpt lat="46.68080091" lon="7.32350349"><ele>1476.241699</ele><time>2009-08-17T14:02:45Z</time></trkpt>
<trkpt lat="46.68077946" lon="7.32350349"><ele>1476.241699</ele><time>2009-08-17T14:02:51Z</time></trkpt>
<trkpt lat="46.68071508" lon="7.32350349"><ele>1476.722412</ele><time>2009-08-17T14:02:55Z</time></trkpt>
<trkpt lat="46.68047905" lon="7.32356787"><ele>1478.64502</ele><time>2009-08-17T14:03:05Z</time></trkpt>
<trkpt lat="46.68004990" lon="7.32361078"><ele>1481.04834</ele><time>2009-08-17T14:03:21Z</time></trkpt>
<trkpt lat="46.67977095" lon="7.32386827"><ele>1483.451416</ele><time>2009-08-17T14:03:34Z</time></trkpt>
<trkpt lat="46.67957783" lon="7.32395411"><ele>1486.335693</ele><time>2009-08-17T14:03:48Z</time></trkpt>
<trkpt lat="46.67940617" lon="7.32401848"><ele>1489.219482</ele><time>2009-08-17T14:04:00Z</time></trkpt>
<trkpt lat="46.67923450" lon="7.32401848"><ele>1491.622803</ele><time>2009-08-17T14:04:12Z</time></trkpt>
<trkpt lat="46.67897701" lon="7.32401848"><ele>1492.584229</ele><time>2009-08-17T14:04:24Z</time></trkpt>
<trkpt lat="46.67878389" lon="7.32401848"><ele>1492.584229</ele><time>2009-08-17T14:04:33Z</time></trkpt>
<trkpt lat="46.67876244" lon="7.32403994"><ele>1492.584229</ele><time>2009-08-17T14:04:42Z</time></trkpt>
<trkpt lat="46.67863369" lon="7.32406139"><ele>1491.14209</ele><time>2009-08-17T14:04:55Z</time></trkpt>
<trkpt lat="46.67848349" lon="7.32416868"><ele>1491.14209</ele><time>2009-08-17T14:04:59Z</time></trkpt>
<trkpt lat="46.67816162" lon="7.32455492"><ele>1492.584229</ele><time>2009-08-17T14:05:09Z</time></trkpt>
<trkpt lat="46.67798996" lon="7.32483387"><ele>1494.987305</ele><time>2009-08-17T14:05:19Z</time></trkpt>
<trkpt lat="46.67783976" lon="7.32517719"><ele>1497.390625</ele><time>2009-08-17T14:05:30Z</time></trkpt>
<trkpt lat="46.67768955" lon="7.32556343"><ele>1498.351807</ele><time>2009-08-17T14:05:39Z</time></trkpt>
<trkpt lat="46.67756081" lon="7.32609987"><ele>1500.274902</ele><time>2009-08-17T14:05:50Z</time></trkpt>
<trkpt lat="46.67745352" lon="7.32635736"><ele>1499.313232</ele><time>2009-08-17T14:05:55Z</time></trkpt>
<trkpt lat="46.67726040" lon="7.32661486"><ele>1496.909912</ele><time>2009-08-17T14:06:02Z</time></trkpt>
<trkpt lat="46.67717457" lon="7.32676506"><ele>1496.429443</ele><time>2009-08-17T14:06:10Z</time></trkpt>
<trkpt lat="46.67715311" lon="7.32678652"><ele>1496.429443</ele><time>2009-08-17T14:06:17Z</time></trkpt>
<trkpt lat="46.67715311" lon="7.32678652"><ele>1496.909912</ele><time>2009-08-17T14:06:27Z</time></trkpt>
<trkpt lat="46.67715311" lon="7.32680798"><ele>1496.909912</ele><time>2009-08-17T14:07:52Z</time></trkpt>
<trkpt lat="46.67713165" lon="7.32676506"><ele>1496.909912</ele><time>2009-08-17T14:08:01Z</time></trkpt>
<trkpt lat="46.67713165" lon="7.32676506"><ele>1496.909912</ele><time>2009-08-17T14:08:12Z</time></trkpt>
<trkpt lat="46.67711020" lon="7.32676506"><ele>1496.909912</ele><time>2009-08-17T14:08:14Z</time></trkpt>
<trkpt lat="46.67698145" lon="7.32670069"><ele>1495.94873</ele><time>2009-08-17T14:08:18Z</time></trkpt>
<trkpt lat="46.67683125" lon="7.32665777"><ele>1494.506592</ele><time>2009-08-17T14:08:21Z</time></trkpt>
<trkpt lat="46.67653084" lon="7.32680798"><ele>1494.506592</ele><time>2009-08-17T14:08:28Z</time></trkpt>
<trkpt lat="46.67633772" lon="7.32708693"><ele>1494.987305</ele><time>2009-08-17T14:08:36Z</time></trkpt>
<trkpt lat="46.67625189" lon="7.32736588"><ele>1495.468018</ele><time>2009-08-17T14:08:44Z</time></trkpt>
<trkpt lat="46.67623043" lon="7.32764482"><ele>1498.351807</ele><time>2009-08-17T14:08:56Z</time></trkpt>
<trkpt lat="46.67623043" lon="7.32794523"><ele>1499.313232</ele><time>2009-08-17T14:09:08Z</time></trkpt>
<trkpt lat="46.67616606" lon="7.32818127"><ele>1501.236084</ele><time>2009-08-17T14:09:17Z</time></trkpt>
<trkpt lat="46.67599440" lon="7.32846022"><ele>1499.793945</ele><time>2009-08-17T14:09:24Z</time></trkpt>
<trkpt lat="46.67586565" lon="7.32861042"><ele>1498.83252</ele><time>2009-08-17T14:09:28Z</time></trkpt>
<trkpt lat="46.67577982" lon="7.32882500"><ele>1499.793945</ele><time>2009-08-17T14:09:34Z</time></trkpt>
<trkpt lat="46.67571545" lon="7.32895374"><ele>1500.755371</ele><time>2009-08-17T14:09:40Z</time></trkpt>
<trkpt lat="46.67567253" lon="7.32903957"><ele>1501.236084</ele><time>2009-08-17T14:09:44Z</time></trkpt>
<trkpt lat="46.67567253" lon="7.32923269"><ele>1503.639404</ele><time>2009-08-17T14:09:51Z</time></trkpt>
<trkpt lat="46.67565107" lon="7.32936144"><ele>1503.639404</ele><time>2009-08-17T14:10:00Z</time></trkpt>
<trkpt lat="46.67567253" lon="7.32942581"><ele>1502.677979</ele><time>2009-08-17T14:10:08Z</time></trkpt>
<trkpt lat="46.67562962" lon="7.32946873"><ele>1504.120117</ele><time>2009-08-17T14:10:16Z</time></trkpt>
<trkpt lat="46.67562962" lon="7.32949018"><ele>1504.600586</ele><time>2009-08-17T14:10:24Z</time></trkpt>
<trkpt lat="46.67562962" lon="7.32953310"><ele>1505.081299</ele><time>2009-08-17T14:10:27Z</time></trkpt>
<trkpt lat="46.67556524" lon="7.32970476"><ele>1507.484619</ele><time>2009-08-17T14:10:36Z</time></trkpt>
<trkpt lat="46.67554379" lon="7.32981205"><ele>1510.368408</ele><time>2009-08-17T14:10:42Z</time></trkpt>
<trkpt lat="46.67554379" lon="7.32989788"><ele>1511.810547</ele><time>2009-08-17T14:10:46Z</time></trkpt>
<trkpt lat="46.67550087" lon="7.33002663"><ele>1512.291016</ele><time>2009-08-17T14:10:52Z</time></trkpt>
<trkpt lat="46.67547941" lon="7.33011246"><ele>1513.252441</ele><time>2009-08-17T14:10:56Z</time></trkpt>
<trkpt lat="46.67535067" lon="7.33028412"><ele>1514.213623</ele><time>2009-08-17T14:11:06Z</time></trkpt>
<trkpt lat="46.67517900" lon="7.33036995"><ele>1513.73291</ele><time>2009-08-17T14:11:14Z</time></trkpt>
<trkpt lat="46.67509317" lon="7.33049870"><ele>1514.694336</ele><time>2009-08-17T14:11:20Z</time></trkpt>
<trkpt lat="46.67490005" lon="7.33071327"><ele>1515.175049</ele><time>2009-08-17T14:11:32Z</time></trkpt>
<trkpt lat="46.67490005" lon="7.33071327"><ele>1515.175049</ele><time>2009-08-17T14:11:33Z</time></trkpt>
<trkpt lat="46.67481422" lon="7.33082056"><ele>1516.617188</ele><time>2009-08-17T14:11:38Z</time></trkpt>
<trkpt lat="46.67479277" lon="7.33086348"><ele>1517.0979</ele><time>2009-08-17T14:11:40Z</time></trkpt>
<trkpt lat="46.67470694" lon="7.33099222"><ele>1518.059082</ele><time>2009-08-17T14:11:46Z</time></trkpt>
<trkpt lat="46.67455673" lon="7.33114243"><ele>1517.578369</ele><time>2009-08-17T14:11:57Z</time></trkpt>
<trkpt lat="46.67455673" lon="7.33114243"><ele>1517.0979</ele><time>2009-08-17T14:12:09Z</time></trkpt>
<trkpt lat="46.67434216" lon="7.33109951"><ele>1515.175049</ele><time>2009-08-17T14:12:16Z</time></trkpt>
<trkpt lat="46.67414904" lon="7.33109951"><ele>1513.73291</ele><time>2009-08-17T14:12:20Z</time></trkpt>
<trkpt lat="46.67391300" lon="7.33099222"><ele>1512.291016</ele><time>2009-08-17T14:12:26Z</time></trkpt>
<trkpt lat="46.67384863" lon="7.33094931"><ele>1511.810547</ele><time>2009-08-17T14:12:28Z</time></trkpt>
<trkpt lat="46.67367697" lon="7.33097076"><ele>1509.887695</ele><time>2009-08-17T14:12:32Z</time></trkpt>
<trkpt lat="46.67361259" lon="7.33099222"><ele>1509.407227</ele><time>2009-08-17T14:12:33Z</time></trkpt>
<trkpt lat="46.67337656" lon="7.33107805"><ele>1507.484619</ele><time>2009-08-17T14:12:38Z</time></trkpt>
<trkpt lat="46.67329073" lon="7.33114243"><ele>1507.003906</ele><time>2009-08-17T14:12:40Z</time></trkpt>
<trkpt lat="46.67305470" lon="7.33131409"><ele>1506.04248</ele><time>2009-08-17T14:12:47Z</time></trkpt>
<trkpt lat="46.67284012" lon="7.33129263"><ele>1504.600586</ele><time>2009-08-17T14:12:55Z</time></trkpt>
<trkpt lat="46.67281866" lon="7.33129263"><ele>1504.120117</ele><time>2009-08-17T14:12:56Z</time></trkpt>
<trkpt lat="46.67262554" lon="7.33114243"><ele>1502.677979</ele><time>2009-08-17T14:13:06Z</time></trkpt>
<trkpt lat="46.67238951" lon="7.33107805"><ele>1500.274902</ele><time>2009-08-17T14:13:14Z</time></trkpt>
<trkpt lat="46.67228222" lon="7.33101368"><ele>1500.274902</ele><time>2009-08-17T14:13:19Z</time></trkpt>
<trkpt lat="46.67193890" lon="7.33109951"><ele>1501.236084</ele><time>2009-08-17T14:13:29Z</time></trkpt>
<trkpt lat="46.67189598" lon="7.33109951"><ele>1501.236084</ele><time>2009-08-17T14:13:30Z</time></trkpt>
<trkpt lat="46.67165995" lon="7.33107805"><ele>1499.793945</ele><time>2009-08-17T14:13:35Z</time></trkpt>
<trkpt lat="46.67146683" lon="7.33109951"><ele>1497.390625</ele><time>2009-08-17T14:13:42Z</time></trkpt>
<trkpt lat="46.67144537" lon="7.33109951"><ele>1497.390625</ele><time>2009-08-17T14:13:43Z</time></trkpt>
<trkpt lat="46.67144537" lon="7.33112097"><ele>1496.909912</ele><time>2009-08-17T14:13:51Z</time></trkpt>
<trkpt lat="46.67144537" lon="7.33112097"><ele>1497.390625</ele><time>2009-08-17T14:14:01Z</time></trkpt>
<trkpt lat="46.67140245" lon="7.33099222"><ele>1496.429443</ele><time>2009-08-17T14:14:07Z</time></trkpt>
<trkpt lat="46.67138100" lon="7.33097076"><ele>1496.429443</ele><time>2009-08-17T14:14:08Z</time></trkpt>
<trkpt lat="46.67131662" lon="7.33071327"><ele>1495.468018</ele><time>2009-08-17T14:14:15Z</time></trkpt>
<trkpt lat="46.67105913" lon="7.33054161"><ele>1494.026123</ele><time>2009-08-17T14:14:22Z</time></trkpt>
<trkpt lat="46.67095184" lon="7.33045578"><ele>1494.987305</ele><time>2009-08-17T14:14:27Z</time></trkpt>
<trkpt lat="46.67088747" lon="7.33034849"><ele>1499.313232</ele><time>2009-08-17T14:14:35Z</time></trkpt>
<trkpt lat="46.67088747" lon="7.33032703"><ele>1499.793945</ele><time>2009-08-17T14:14:37Z</time></trkpt>
<trkpt lat="46.67086601" lon="7.33030558"><ele>1500.755371</ele><time>2009-08-17T14:14:39Z</time></trkpt>
<trkpt lat="46.67075872" lon="7.33019829"><ele>1504.120117</ele><time>2009-08-17T14:14:50Z</time></trkpt>
<trkpt lat="46.67071581" lon="7.33017683"><ele>1505.562012</ele><time>2009-08-17T14:15:00Z</time></trkpt>
<trkpt lat="46.67069435" lon="7.33011246"><ele>1505.562012</ele><time>2009-08-17T14:15:03Z</time></trkpt>
<trkpt lat="46.67067289" lon="7.33002663"><ele>1506.523193</ele><time>2009-08-17T14:15:09Z</time></trkpt>
<trkpt lat="46.67062998" lon="7.32987642"><ele>1507.484619</ele><time>2009-08-17T14:15:15Z</time></trkpt>
<trkpt lat="46.67060852" lon="7.32974768"><ele>1508.445801</ele><time>2009-08-17T14:15:22Z</time></trkpt>
<trkpt lat="46.67058706" lon="7.32974768"><ele>1508.445801</ele><time>2009-08-17T14:15:35Z</time></trkpt>
<trkpt lat="46.67056561" lon="7.32974768"><ele>1508.926514</ele><time>2009-08-17T14:15:44Z</time></trkpt>
<trkpt lat="46.67058706" lon="7.32974768"><ele>1509.407227</ele><time>2009-08-17T14:15:52Z</time></trkpt>
<trkpt lat="46.67058706" lon="7.32974768"><ele>1509.407227</ele><time>2009-08-17T14:15:54Z</time></trkpt>
<trkpt lat="46.67058706" lon="7.32972622"><ele>1509.887695</ele><time>2009-08-17T14:15:59Z</time></trkpt>
<trkpt lat="46.67045832" lon="7.32961893"><ele>1509.407227</ele><time>2009-08-17T14:16:06Z</time></trkpt>
<trkpt lat="46.67037249" lon="7.32957602"><ele>1509.887695</ele><time>2009-08-17T14:16:08Z</time></trkpt>
<trkpt lat="46.67030811" lon="7.32953310"><ele>1510.368408</ele><time>2009-08-17T14:16:10Z</time></trkpt>
<trkpt lat="46.67013645" lon="7.32946873"><ele>1512.291016</ele><time>2009-08-17T14:16:15Z</time></trkpt>
<trkpt lat="46.67007208" lon="7.32942581"><ele>1512.771729</ele><time>2009-08-17T14:16:17Z</time></trkpt>
<trkpt lat="46.66994333" lon="7.32936144"><ele>1513.252441</ele><time>2009-08-17T14:16:21Z</time></trkpt>
<trkpt lat="46.66981459" lon="7.32927561"><ele>1512.771729</ele><time>2009-08-17T14:16:25Z</time></trkpt>
<trkpt lat="46.66960001" lon="7.32916832"><ele>1511.810547</ele><time>2009-08-17T14:16:32Z</time></trkpt>
<trkpt lat="46.66953564" lon="7.32912540"><ele>1512.291016</ele><time>2009-08-17T14:16:36Z</time></trkpt>
<trkpt lat="46.66938543" lon="7.32906103"><ele>1511.810547</ele><time>2009-08-17T14:16:40Z</time></trkpt>
<trkpt lat="46.66936398" lon="7.32906103"><ele>1511.329834</ele><time>2009-08-17T14:16:41Z</time></trkpt>
<trkpt lat="46.66914940" lon="7.32893229"><ele>1511.810547</ele><time>2009-08-17T14:16:48Z</time></trkpt>
<trkpt lat="46.66904211" lon="7.32882500"><ele>1511.810547</ele><time>2009-08-17T14:16:52Z</time></trkpt>
<trkpt lat="46.66891336" lon="7.32865334"><ele>1510.368408</ele><time>2009-08-17T14:16:56Z</time></trkpt>
<trkpt lat="46.66876316" lon="7.32852459"><ele>1509.887695</ele><time>2009-08-17T14:17:01Z</time></trkpt>
<trkpt lat="46.66861296" lon="7.32826710"><ele>1507.484619</ele><time>2009-08-17T14:17:06Z</time></trkpt>
<trkpt lat="46.66859150" lon="7.32820272"><ele>1507.003906</ele><time>2009-08-17T14:17:07Z</time></trkpt>
<trkpt lat="46.66835546" lon="7.32792377"><ele>1505.562012</ele><time>2009-08-17T14:17:13Z</time></trkpt>
<trkpt lat="46.66818380" lon="7.32777357"><ele>1504.600586</ele><time>2009-08-17T14:17:18Z</time></trkpt>
<trkpt lat="46.66805506" lon="7.32755899"><ele>1502.197266</ele><time>2009-08-17T14:17:24Z</time></trkpt>
<trkpt lat="46.66788340" lon="7.32743025"><ele>1498.351807</ele><time>2009-08-17T14:17:30Z</time></trkpt>
<trkpt lat="46.66781902" lon="7.32745171"><ele>1497.871338</ele><time>2009-08-17T14:17:32Z</time></trkpt>
<trkpt lat="46.66779757" lon="7.32747316"><ele>1497.390625</ele><time>2009-08-17T14:17:33Z</time></trkpt>
<trkpt lat="46.66779757" lon="7.32760191"><ele>1496.909912</ele><time>2009-08-17T14:17:39Z</time></trkpt>
<trkpt lat="46.66779757" lon="7.32766628"><ele>1497.871338</ele><time>2009-08-17T14:17:42Z</time></trkpt>
<trkpt lat="46.66773319" lon="7.32779503"><ele>1498.351807</ele><time>2009-08-17T14:17:49Z</time></trkpt>
<trkpt lat="46.66762590" lon="7.32794523"><ele>1499.313232</ele><time>2009-08-17T14:17:56Z</time></trkpt>
<trkpt lat="46.66756153" lon="7.32805252"><ele>1499.313232</ele><time>2009-08-17T14:17:58Z</time></trkpt>
<trkpt lat="46.66747570" lon="7.32843876"><ele>1502.197266</ele><time>2009-08-17T14:18:06Z</time></trkpt>
<trkpt lat="46.66726112" lon="7.32865334"><ele>1503.639404</ele><time>2009-08-17T14:18:18Z</time></trkpt>
<trkpt lat="46.66708946" lon="7.32878208"><ele>1506.04248</ele><time>2009-08-17T14:18:29Z</time></trkpt>
<trkpt lat="46.66700363" lon="7.32876062"><ele>1506.523193</ele><time>2009-08-17T14:18:34Z</time></trkpt>
<trkpt lat="46.66685343" lon="7.32854605"><ele>1509.407227</ele><time>2009-08-17T14:18:47Z</time></trkpt>
<trkpt lat="46.66683197" lon="7.32852459"><ele>1509.407227</ele><time>2009-08-17T14:18:49Z</time></trkpt>
<trkpt lat="46.66668177" lon="7.32826710"><ele>1512.771729</ele><time>2009-08-17T14:19:05Z</time></trkpt>
<trkpt lat="46.66659594" lon="7.32807398"><ele>1515.175049</ele><time>2009-08-17T14:19:17Z</time></trkpt>
<trkpt lat="46.66646719" lon="7.32788086"><ele>1517.578369</ele><time>2009-08-17T14:19:32Z</time></trkpt>
<trkpt lat="46.66642427" lon="7.32781649"><ele>1518.059082</ele><time>2009-08-17T14:19:36Z</time></trkpt>
<trkpt lat="46.66638136" lon="7.32770920"><ele>1519.020508</ele><time>2009-08-17T14:19:43Z</time></trkpt>
<trkpt lat="46.66635990" lon="7.32743025"><ele>1521.904297</ele><time>2009-08-17T14:19:56Z</time></trkpt>
<trkpt lat="46.66640282" lon="7.32717276"><ele>1524.307617</ele><time>2009-08-17T14:20:09Z</time></trkpt>
<trkpt lat="46.66657448" lon="7.32697964"><ele>1526.710938</ele><time>2009-08-17T14:20:24Z</time></trkpt>
<trkpt lat="46.66674614" lon="7.32685089"><ele>1529.114014</ele><time>2009-08-17T14:20:38Z</time></trkpt>
<trkpt lat="46.66685343" lon="7.32663631"><ele>1530.075439</ele><time>2009-08-17T14:20:49Z</time></trkpt>
<trkpt lat="46.66672468" lon="7.32648611"><ele>1531.998047</ele><time>2009-08-17T14:21:00Z</time></trkpt>
<trkpt lat="46.66655302" lon="7.32640028"><ele>1534.401611</ele><time>2009-08-17T14:21:12Z</time></trkpt>
<trkpt lat="46.66651011" lon="7.32635736"><ele>1534.882324</ele><time>2009-08-17T14:21:16Z</time></trkpt>
<trkpt lat="46.66644573" lon="7.32618570"><ele>1537.2854</ele><time>2009-08-17T14:21:26Z</time></trkpt>
<trkpt lat="46.66646719" lon="7.32590675"><ele>1539.208008</ele><time>2009-08-17T14:21:40Z</time></trkpt>
<trkpt lat="46.66648865" lon="7.32584238"><ele>1540.169434</ele><time>2009-08-17T14:21:44Z</time></trkpt>
<trkpt lat="46.66653156" lon="7.32562780"><ele>1541.611328</ele><time>2009-08-17T14:21:56Z</time></trkpt>
<trkpt lat="46.66651011" lon="7.32547760"><ele>1544.014648</ele><time>2009-08-17T14:22:05Z</time></trkpt>
<trkpt lat="46.66644573" lon="7.32537031"><ele>1544.97583</ele><time>2009-08-17T14:22:12Z</time></trkpt>
<trkpt lat="46.66633844" lon="7.32519865"><ele>1545.937256</ele><time>2009-08-17T14:22:25Z</time></trkpt>
<trkpt lat="46.66618824" lon="7.32500553"><ele>1548.340576</ele><time>2009-08-17T14:22:41Z</time></trkpt>
<trkpt lat="46.66603804" lon="7.32487679"><ele>1552.185791</ele><time>2009-08-17T14:22:54Z</time></trkpt>
<trkpt lat="46.66588783" lon="7.32472658"><ele>1554.589111</ele><time>2009-08-17T14:23:07Z</time></trkpt>
<trkpt lat="46.66573763" lon="7.32453346"><ele>1556.992432</ele><time>2009-08-17T14:23:22Z</time></trkpt>
<trkpt lat="46.66560888" lon="7.32429743"><ele>1560.356934</ele><time>2009-08-17T14:23:38Z</time></trkpt>
<trkpt lat="46.66552305" lon="7.32403994"><ele>1563.721436</ele><time>2009-08-17T14:23:52Z</time></trkpt>
<trkpt lat="46.66543722" lon="7.32373953"><ele>1564.683105</ele><time>2009-08-17T14:24:08Z</time></trkpt>
<trkpt lat="46.66526556" lon="7.32365370"><ele>1565.644531</ele><time>2009-08-17T14:24:19Z</time></trkpt>
<trkpt lat="46.66505098" lon="7.32350349"><ele>1567.086426</ele><time>2009-08-17T14:24:33Z</time></trkpt>
<trkpt lat="46.66483641" lon="7.32335329"><ele>1568.52832</ele><time>2009-08-17T14:24:47Z</time></trkpt>
<trkpt lat="46.66457891" lon="7.32326746"><ele>1569.489746</ele><time>2009-08-17T14:25:02Z</time></trkpt>
<trkpt lat="46.66436434" lon="7.32320309"><ele>1572.854248</ele><time>2009-08-17T14:25:17Z</time></trkpt>
<trkpt lat="46.66417122" lon="7.32313871"><ele>1576.21875</ele><time>2009-08-17T14:25:33Z</time></trkpt>
<trkpt lat="46.66395664" lon="7.32311726"><ele>1579.102539</ele><time>2009-08-17T14:25:48Z</time></trkpt>
<trkpt lat="46.66378498" lon="7.32305288"><ele>1581.025635</ele><time>2009-08-17T14:26:01Z</time></trkpt>
<trkpt lat="46.66361332" lon="7.32300997"><ele>1582.467529</ele><time>2009-08-17T14:26:14Z</time></trkpt>
<trkpt lat="46.66346312" lon="7.32290268"><ele>1584.390137</ele><time>2009-08-17T14:26:26Z</time></trkpt>
<trkpt lat="46.66329145" lon="7.32275248"><ele>1586.793213</ele><time>2009-08-17T14:26:40Z</time></trkpt>
<trkpt lat="46.66327000" lon="7.32270956"><ele>1586.793213</ele><time>2009-08-17T14:26:42Z</time></trkpt>
<trkpt lat="46.66322708" lon="7.32266665"><ele>1587.273926</ele><time>2009-08-17T14:26:46Z</time></trkpt>
<trkpt lat="46.66307688" lon="7.32247353"><ele>1588.716064</ele><time>2009-08-17T14:27:00Z</time></trkpt>
<trkpt lat="46.66296959" lon="7.32225895"><ele>1589.677246</ele><time>2009-08-17T14:27:13Z</time></trkpt>
<trkpt lat="46.66286230" lon="7.32204437"><ele>1594.483643</ele><time>2009-08-17T14:27:26Z</time></trkpt>
<trkpt lat="46.66284084" lon="7.32200146"><ele>1595.445068</ele><time>2009-08-17T14:27:29Z</time></trkpt>
<trkpt lat="46.66281939" lon="7.32193708"><ele>1596.887207</ele><time>2009-08-17T14:27:33Z</time></trkpt>
<trkpt lat="46.66271210" lon="7.32165813"><ele>1601.213135</ele><time>2009-08-17T14:27:49Z</time></trkpt>
<trkpt lat="46.66262627" lon="7.32146502"><ele>1603.135742</ele><time>2009-08-17T14:28:01Z</time></trkpt>
<trkpt lat="46.66256189" lon="7.32125044"><ele>1606.019531</ele><time>2009-08-17T14:28:13Z</time></trkpt>
<trkpt lat="46.66245461" lon="7.32097149"><ele>1608.903564</ele><time>2009-08-17T14:28:29Z</time></trkpt>
<trkpt lat="46.66236877" lon="7.32069254"><ele>1610.826172</ele><time>2009-08-17T14:28:45Z</time></trkpt>
<trkpt lat="46.66232586" lon="7.32047796"><ele>1612.749023</ele><time>2009-08-17T14:28:57Z</time></trkpt>
<trkpt lat="46.66232586" lon="7.32019901"><ele>1615.152344</ele><time>2009-08-17T14:29:11Z</time></trkpt>
<trkpt lat="46.66236877" lon="7.31994152"><ele>1617.074951</ele><time>2009-08-17T14:29:24Z</time></trkpt>
<trkpt lat="46.66236877" lon="7.31972694"><ele>1618.997559</ele><time>2009-08-17T14:29:37Z</time></trkpt>
<trkpt lat="46.66224003" lon="7.31951237"><ele>1621.400635</ele><time>2009-08-17T14:29:51Z</time></trkpt>
<trkpt lat="46.66213274" lon="7.31931925"><ele>1624.284668</ele><time>2009-08-17T14:30:05Z</time></trkpt>
<trkpt lat="46.66198254" lon="7.31908321"><ele>1626.687988</ele><time>2009-08-17T14:30:21Z</time></trkpt>
<trkpt lat="46.66187525" lon="7.31886864"><ele>1628.61084</ele><time>2009-08-17T14:30:35Z</time></trkpt>
<trkpt lat="46.66185379" lon="7.31884718"><ele>1629.091309</ele><time>2009-08-17T14:30:36Z</time></trkpt>
<trkpt lat="46.66181087" lon="7.31876135"><ele>1630.533447</ele><time>2009-08-17T14:30:42Z</time></trkpt>
<trkpt lat="46.66178942" lon="7.31863260"><ele>1631.01416</ele><time>2009-08-17T14:30:53Z</time></trkpt>
<trkpt lat="46.66178942" lon="7.31863260"><ele>1631.01416</ele><time>2009-08-17T14:30:54Z</time></trkpt>
<trkpt lat="46.66181087" lon="7.31861115"><ele>1631.01416</ele><time>2009-08-17T14:31:04Z</time></trkpt>
<trkpt lat="46.66178942" lon="7.31861115"><ele>1630.533447</ele><time>2009-08-17T14:32:28Z</time></trkpt>
<trkpt lat="46.66176796" lon="7.31858969"><ele>1630.052734</ele><time>2009-08-17T14:32:30Z</time></trkpt>
<trkpt lat="46.66183233" lon="7.31854677"><ele>1631.494629</ele><time>2009-08-17T14:32:36Z</time></trkpt>
<trkpt lat="46.66185379" lon="7.31854677"><ele>1631.494629</ele><time>2009-08-17T14:32:37Z</time></trkpt>
<trkpt lat="46.66204691" lon="7.31856823"><ele>1633.897949</ele><time>2009-08-17T14:32:49Z</time></trkpt>
<trkpt lat="46.66221857" lon="7.31863260"><ele>1636.30127</ele><time>2009-08-17T14:33:01Z</time></trkpt>
<trkpt lat="46.66245461" lon="7.31867552"><ele>1639.185059</ele><time>2009-08-17T14:33:16Z</time></trkpt>
<trkpt lat="46.66266918" lon="7.31876135"><ele>1641.107666</ele><time>2009-08-17T14:33:31Z</time></trkpt>
<trkpt lat="46.66281939" lon="7.31889009"><ele>1642.549805</ele><time>2009-08-17T14:33:43Z</time></trkpt>
<trkpt lat="46.66290522" lon="7.31921196"><ele>1643.991699</ele><time>2009-08-17T14:34:00Z</time></trkpt>
<trkpt lat="46.66292667" lon="7.31925488"><ele>1644.472412</ele><time>2009-08-17T14:34:02Z</time></trkpt>
<trkpt lat="46.66307688" lon="7.31940508"><ele>1644.953125</ele><time>2009-08-17T14:34:15Z</time></trkpt>
<trkpt lat="46.66327000" lon="7.31925488"><ele>1646.875732</ele><time>2009-08-17T14:34:26Z</time></trkpt>
<trkpt lat="46.66350603" lon="7.31899738"><ele>1648.79834</ele><time>2009-08-17T14:34:39Z</time></trkpt>
<trkpt lat="46.66387081" lon="7.31871843"><ele>1648.317627</ele><time>2009-08-17T14:34:51Z</time></trkpt>
<trkpt lat="46.66429996" lon="7.31884718"><ele>1647.837158</ele><time>2009-08-17T14:35:02Z</time></trkpt>
<trkpt lat="46.66434288" lon="7.31884718"><ele>1647.837158</ele><time>2009-08-17T14:35:03Z</time></trkpt>
<trkpt lat="46.66440725" lon="7.31869698"><ele>1647.837158</ele><time>2009-08-17T14:35:09Z</time></trkpt>
<trkpt lat="46.66440725" lon="7.31865406"><ele>1646.875732</ele><time>2009-08-17T14:35:17Z</time></trkpt>
<trkpt lat="46.66440725" lon="7.31865406"><ele>1646.395264</ele><time>2009-08-17T14:35:41Z</time></trkpt>
<trkpt lat="46.66440725" lon="7.31863260"><ele>1645.914551</ele><time>2009-08-17T14:35:59Z</time></trkpt>
<trkpt lat="46.66438580" lon="7.31863260"><ele>1645.433838</ele><time>2009-08-17T14:37:24Z</time></trkpt>
<trkpt lat="46.66438580" lon="7.31856823"><ele>1644.953125</ele><time>2009-08-17T14:37:33Z</time></trkpt>
<trkpt lat="46.66429996" lon="7.31828928"><ele>1643.510986</ele><time>2009-08-17T14:37:38Z</time></trkpt>
<trkpt lat="46.66425705" lon="7.31803179"><ele>1643.030273</ele><time>2009-08-17T14:37:42Z</time></trkpt>
<trkpt lat="46.66402102" lon="7.31732368"><ele>1642.069092</ele><time>2009-08-17T14:37:54Z</time></trkpt>
<trkpt lat="46.66397810" lon="7.31721640"><ele>1642.069092</ele><time>2009-08-17T14:37:56Z</time></trkpt>
<trkpt lat="46.66369915" lon="7.31663704"><ele>1639.665771</ele><time>2009-08-17T14:38:06Z</time></trkpt>
<trkpt lat="46.66363478" lon="7.31652975"><ele>1639.185059</ele><time>2009-08-17T14:38:08Z</time></trkpt>
<trkpt lat="46.66352749" lon="7.31627226"><ele>1637.262451</ele><time>2009-08-17T14:38:12Z</time></trkpt>
<trkpt lat="46.66335583" lon="7.31607914"><ele>1636.781738</ele><time>2009-08-17T14:38:16Z</time></trkpt>
<trkpt lat="46.66327000" lon="7.31599331"><ele>1636.781738</ele><time>2009-08-17T14:38:18Z</time></trkpt>
<trkpt lat="46.66320562" lon="7.31584311"><ele>1637.262451</ele><time>2009-08-17T14:38:21Z</time></trkpt>
<trkpt lat="46.66281939" lon="7.31530666"><ele>1636.30127</ele><time>2009-08-17T14:38:32Z</time></trkpt>
<trkpt lat="46.66256189" lon="7.31496334"><ele>1635.339844</ele><time>2009-08-17T14:38:39Z</time></trkpt>
<trkpt lat="46.66232586" lon="7.31472731"><ele>1635.339844</ele><time>2009-08-17T14:38:45Z</time></trkpt>
<trkpt lat="46.66198254" lon="7.31414795"><ele>1633.897949</ele><time>2009-08-17T14:38:55Z</time></trkpt>
<trkpt lat="46.66178942" lon="7.31380463"><ele>1632.936523</ele><time>2009-08-17T14:39:00Z</time></trkpt>
<trkpt lat="46.66163921" lon="7.31356859"><ele>1631.494629</ele><time>2009-08-17T14:39:04Z</time></trkpt>
<trkpt lat="46.66144609" lon="7.31335402"><ele>1631.01416</ele><time>2009-08-17T14:39:08Z</time></trkpt>
<trkpt lat="46.66084528" lon="7.31301069"><ele>1631.494629</ele><time>2009-08-17T14:39:18Z</time></trkpt>
<trkpt lat="46.66033030" lon="7.31253862"><ele>1630.052734</ele><time>2009-08-17T14:39:27Z</time></trkpt>
<trkpt lat="46.66011572" lon="7.31228113"><ele>1629.572021</ele><time>2009-08-17T14:39:31Z</time></trkpt>
<trkpt lat="46.65992260" lon="7.31204510"><ele>1629.091309</ele><time>2009-08-17T14:39:35Z</time></trkpt>
<trkpt lat="46.65945053" lon="7.31140137"><ele>1626.687988</ele><time>2009-08-17T14:39:44Z</time></trkpt>
<trkpt lat="46.65921450" lon="7.31107950"><ele>1626.207275</ele><time>2009-08-17T14:39:49Z</time></trkpt>
<trkpt lat="46.65908575" lon="7.31095076"><ele>1625.24585</ele><time>2009-08-17T14:39:52Z</time></trkpt>
<trkpt lat="46.65897846" lon="7.31082201"><ele>1623.803955</ele><time>2009-08-17T14:39:55Z</time></trkpt>
<trkpt lat="46.65887117" lon="7.31073618"><ele>1622.842773</ele><time>2009-08-17T14:39:58Z</time></trkpt>
<trkpt lat="46.65869951" lon="7.31058598"><ele>1621.881348</ele><time>2009-08-17T14:40:02Z</time></trkpt>
<trkpt lat="46.65846348" lon="7.31024265"><ele>1620.920166</ele><time>2009-08-17T14:40:08Z</time></trkpt>
<trkpt lat="46.65827036" lon="7.30996370"><ele>1618.036133</ele><time>2009-08-17T14:40:15Z</time></trkpt>
<trkpt lat="46.65818453" lon="7.30985641"><ele>1616.594238</ele><time>2009-08-17T14:40:19Z</time></trkpt>
<trkpt lat="46.65796995" lon="7.30964184"><ele>1613.710205</ele><time>2009-08-17T14:40:26Z</time></trkpt>
<trkpt lat="46.65762663" lon="7.30929852"><ele>1608.903564</ele><time>2009-08-17T14:40:34Z</time></trkpt>
<trkpt lat="46.65747643" lon="7.30921268"><ele>1607.46167</ele><time>2009-08-17T14:40:37Z</time></trkpt>
<trkpt lat="46.65726185" lon="7.30914831"><ele>1604.577637</ele><time>2009-08-17T14:40:44Z</time></trkpt>
<trkpt lat="46.65721893" lon="7.30916977"><ele>1605.539063</ele><time>2009-08-17T14:40:46Z</time></trkpt>
<trkpt lat="46.65721893" lon="7.30914831"><ele>1606.500244</ele><time>2009-08-17T14:40:48Z</time></trkpt>
<trkpt lat="46.65721893" lon="7.30910540"><ele>1606.500244</ele><time>2009-08-17T14:40:55Z</time></trkpt>
<trkpt lat="46.65721893" lon="7.30906248"><ele>1605.539063</ele><time>2009-08-17T14:41:02Z</time></trkpt>
<trkpt lat="46.65721893" lon="7.30906248"><ele>1604.577637</ele><time>2009-08-17T14:41:12Z</time></trkpt>
<trkpt lat="46.65721893" lon="7.30904102"><ele>1604.577637</ele><time>2009-08-17T14:41:28Z</time></trkpt>
<trkpt lat="46.65721893" lon="7.30891228"><ele>1603.135742</ele><time>2009-08-17T14:41:35Z</time></trkpt>
<trkpt lat="46.65719748" lon="7.30869770"><ele>1598.329102</ele><time>2009-08-17T14:41:42Z</time></trkpt>
<trkpt lat="46.65713310" lon="7.30841875"><ele>1593.041748</ele><time>2009-08-17T14:41:49Z</time></trkpt>
<trkpt lat="46.65700436" lon="7.30818272"><ele>1587.754639</ele><time>2009-08-17T14:41:55Z</time></trkpt>
<trkpt lat="46.65691853" lon="7.30798960"><ele>1582.467529</ele><time>2009-08-17T14:42:03Z</time></trkpt>
<trkpt lat="46.65685415" lon="7.30779648"><ele>1578.141357</ele><time>2009-08-17T14:42:09Z</time></trkpt>
<trkpt lat="46.65683270" lon="7.30771065"><ele>1577.180176</ele><time>2009-08-17T14:42:12Z</time></trkpt>
<trkpt lat="46.65678978" lon="7.30766773"><ele>1575.257324</ele><time>2009-08-17T14:42:19Z</time></trkpt>
<trkpt lat="46.65678978" lon="7.30766773"><ele>1575.257324</ele><time>2009-08-17T14:42:20Z</time></trkpt>
<trkpt lat="46.65672541" lon="7.30749607"><ele>1572.373535</ele><time>2009-08-17T14:42:27Z</time></trkpt>
<trkpt lat="46.65670395" lon="7.30747461"><ele>1571.892822</ele><time>2009-08-17T14:42:28Z</time></trkpt>
<trkpt lat="46.65661812" lon="7.30734587"><ele>1570.931641</ele><time>2009-08-17T14:42:31Z</time></trkpt>
<trkpt lat="46.65646791" lon="7.30723858"><ele>1568.047607</ele><time>2009-08-17T14:42:36Z</time></trkpt>
<trkpt lat="46.65629625" lon="7.30728149"><ele>1563.721436</ele><time>2009-08-17T14:42:41Z</time></trkpt>
<trkpt lat="46.65614605" lon="7.30728149"><ele>1560.837646</ele><time>2009-08-17T14:42:45Z</time></trkpt>
<trkpt lat="46.65610313" lon="7.30728149"><ele>1559.876221</ele><time>2009-08-17T14:42:46Z</time></trkpt>
<trkpt lat="46.65593147" lon="7.30721712"><ele>1557.473145</ele><time>2009-08-17T14:42:50Z</time></trkpt>
<trkpt lat="46.65586710" lon="7.30702400"><ele>1554.589111</ele><time>2009-08-17T14:42:54Z</time></trkpt>
<trkpt lat="46.65575981" lon="7.30687380"><ele>1551.705322</ele><time>2009-08-17T14:42:58Z</time></trkpt>
<trkpt lat="46.65558815" lon="7.30665922"><ele>1547.859863</ele><time>2009-08-17T14:43:04Z</time></trkpt>
<trkpt lat="46.65543795" lon="7.30655193"><ele>1545.937256</ele><time>2009-08-17T14:43:08Z</time></trkpt>
<trkpt lat="46.65530920" lon="7.30644464"><ele>1543.053223</ele><time>2009-08-17T14:43:11Z</time></trkpt>
<trkpt lat="46.65503025" lon="7.30620861"><ele>1537.2854</ele><time>2009-08-17T14:43:17Z</time></trkpt>
<trkpt lat="46.65490150" lon="7.30610132"><ele>1533.920898</ele><time>2009-08-17T14:43:21Z</time></trkpt>
<trkpt lat="46.65464401" lon="7.30582237"><ele>1526.230225</ele><time>2009-08-17T14:43:28Z</time></trkpt>
<trkpt lat="46.65457964" lon="7.30575800"><ele>1524.307617</ele><time>2009-08-17T14:43:30Z</time></trkpt>
<trkpt lat="46.65442944" lon="7.30556488"><ele>1519.981689</ele><time>2009-08-17T14:43:34Z</time></trkpt>
<trkpt lat="46.65440798" lon="7.30552197"><ele>1519.020508</ele><time>2009-08-17T14:43:35Z</time></trkpt>
<trkpt lat="46.65423632" lon="7.30537176"><ele>1515.175049</ele><time>2009-08-17T14:43:38Z</time></trkpt>
<trkpt lat="46.65402174" lon="7.30511427"><ele>1511.329834</ele><time>2009-08-17T14:43:42Z</time></trkpt>
<trkpt lat="46.65389299" lon="7.30468512"><ele>1507.965332</ele><time>2009-08-17T14:43:49Z</time></trkpt>
<trkpt lat="46.65387154" lon="7.30462074"><ele>1507.484619</ele><time>2009-08-17T14:43:50Z</time></trkpt>
<trkpt lat="46.65385008" lon="7.30455637"><ele>1507.003906</ele><time>2009-08-17T14:43:51Z</time></trkpt>
<trkpt lat="46.65378571" lon="7.30436325"><ele>1505.081299</ele><time>2009-08-17T14:43:54Z</time></trkpt>
<trkpt lat="46.65367842" lon="7.30376244"><ele>1494.987305</ele><time>2009-08-17T14:44:01Z</time></trkpt>
<trkpt lat="46.65367842" lon="7.30369806"><ele>1493.54541</ele><time>2009-08-17T14:44:02Z</time></trkpt>
<trkpt lat="46.65367842" lon="7.30335474"><ele>1488.258301</ele><time>2009-08-17T14:44:07Z</time></trkpt>
<trkpt lat="46.65363550" lon="7.30303288"><ele>1482.970703</ele><time>2009-08-17T14:44:13Z</time></trkpt>
<trkpt lat="46.65357113" lon="7.30286121"><ele>1479.606201</ele><time>2009-08-17T14:44:18Z</time></trkpt>
<trkpt lat="46.65348530" lon="7.30277538"><ele>1479.125488</ele><time>2009-08-17T14:44:21Z</time></trkpt>
<trkpt lat="46.65324926" lon="7.30253935"><ele>1480.567627</ele><time>2009-08-17T14:44:31Z</time></trkpt>
<trkpt lat="46.65307760" lon="7.30251789"><ele>1479.125488</ele><time>2009-08-17T14:44:38Z</time></trkpt>
<trkpt lat="46.65309906" lon="7.30256081"><ele>1479.606201</ele><time>2009-08-17T14:44:47Z</time></trkpt>
<trkpt lat="46.65309906" lon="7.30256081"><ele>1479.606201</ele><time>2009-08-17T14:45:59Z</time></trkpt>
<trkpt lat="46.65309906" lon="7.30256081"><ele>1480.086914</ele><time>2009-08-17T14:47:06Z</time></trkpt>
<trkpt lat="46.65309906" lon="7.30253935"><ele>1480.086914</ele><time>2009-08-17T14:47:19Z</time></trkpt>
<trkpt lat="46.65312052" lon="7.30253935"><ele>1481.04834</ele><time>2009-08-17T14:47:28Z</time></trkpt>
<trkpt lat="46.65312052" lon="7.30226040"><ele>1481.04834</ele><time>2009-08-17T14:47:34Z</time></trkpt>
<trkpt lat="46.65320635" lon="7.30206728"><ele>1477.203125</ele><time>2009-08-17T14:47:38Z</time></trkpt>
<trkpt lat="46.65335655" lon="7.30170250"><ele>1469.512695</ele><time>2009-08-17T14:47:46Z</time></trkpt>
<trkpt lat="46.65339947" lon="7.30161667"><ele>1464.225098</ele><time>2009-08-17T14:47:53Z</time></trkpt>
<trkpt lat="46.65344238" lon="7.30159521"><ele>1466.628418</ele><time>2009-08-17T14:48:02Z</time></trkpt>
<trkpt lat="46.65348530" lon="7.30157375"><ele>1465.667236</ele><time>2009-08-17T14:48:09Z</time></trkpt>
<trkpt lat="46.65361404" lon="7.30148792"><ele>1464.225098</ele><time>2009-08-17T14:48:13Z</time></trkpt>
<trkpt lat="46.65391445" lon="7.30112314"><ele>1458.937988</ele><time>2009-08-17T14:48:20Z</time></trkpt>
<trkpt lat="46.65415049" lon="7.30077982"><ele>1452.689453</ele><time>2009-08-17T14:48:27Z</time></trkpt>
<trkpt lat="46.65427923" lon="7.30060816"><ele>1450.286133</ele><time>2009-08-17T14:48:31Z</time></trkpt>
<trkpt lat="46.65434361" lon="7.30054379"><ele>1449.324707</ele><time>2009-08-17T14:48:33Z</time></trkpt>
<trkpt lat="46.65436506" lon="7.30037212"><ele>1448.843994</ele><time>2009-08-17T14:48:37Z</time></trkpt>
<trkpt lat="46.65427923" lon="7.29996443"><ele>1448.363281</ele><time>2009-08-17T14:48:47Z</time></trkpt>
<trkpt lat="46.65419340" lon="7.29987860"><ele>1449.324707</ele><time>2009-08-17T14:48:55Z</time></trkpt>
<trkpt lat="46.65417194" lon="7.29985714"><ele>1448.363281</ele><time>2009-08-17T14:49:04Z</time></trkpt>
<trkpt lat="46.65417194" lon="7.29985714"><ele>1448.843994</ele><time>2009-08-17T14:49:16Z</time></trkpt>
<trkpt lat="46.65417194" lon="7.29985714"><ele>1448.843994</ele><time>2009-08-17T14:49:18Z</time></trkpt>
<trkpt lat="46.65417194" lon="7.29957819"><ele>1447.882813</ele><time>2009-08-17T14:49:24Z</time></trkpt>
<trkpt lat="46.65423632" lon="7.29914904"><ele>1444.998779</ele><time>2009-08-17T14:49:30Z</time></trkpt>
<trkpt lat="46.65432215" lon="7.29897738"><ele>1444.037598</ele><time>2009-08-17T14:49:34Z</time></trkpt>
<trkpt lat="46.65427923" lon="7.29880571"><ele>1444.518066</ele><time>2009-08-17T14:49:41Z</time></trkpt>
<trkpt lat="46.65425777" lon="7.29880571"><ele>1444.998779</ele><time>2009-08-17T14:49:42Z</time></trkpt>
<trkpt lat="46.65404320" lon="7.29880571"><ele>1446.921387</ele><time>2009-08-17T14:49:56Z</time></trkpt>
<trkpt lat="46.65385008" lon="7.29882717"><ele>1448.843994</ele><time>2009-08-17T14:50:08Z</time></trkpt>
<trkpt lat="46.65382862" lon="7.29882717"><ele>1449.324707</ele><time>2009-08-17T14:50:09Z</time></trkpt>
<trkpt lat="46.65365696" lon="7.29887009"><ele>1451.247314</ele><time>2009-08-17T14:50:20Z</time></trkpt>
<trkpt lat="46.65357113" lon="7.29887009"><ele>1452.20874</ele><time>2009-08-17T14:50:25Z</time></trkpt>
<trkpt lat="46.65337801" lon="7.29889154"><ele>1453.650879</ele><time>2009-08-17T14:50:38Z</time></trkpt>
<trkpt lat="46.65322781" lon="7.29887009"><ele>1455.573486</ele><time>2009-08-17T14:50:48Z</time></trkpt>
<trkpt lat="46.65303469" lon="7.29884863"><ele>1457.496094</ele><time>2009-08-17T14:51:01Z</time></trkpt>
<trkpt lat="46.65288448" lon="7.29882717"><ele>1460.860596</ele><time>2009-08-17T14:51:11Z</time></trkpt>
<trkpt lat="46.65271282" lon="7.29878426"><ele>1464.705811</ele><time>2009-08-17T14:51:24Z</time></trkpt>
<trkpt lat="46.65262699" lon="7.29876280"><ele>1464.225098</ele><time>2009-08-17T14:51:31Z</time></trkpt>
<trkpt lat="46.65245533" lon="7.29887009"><ele>1465.186523</ele><time>2009-08-17T14:51:45Z</time></trkpt>
<trkpt lat="46.65230513" lon="7.29878426"><ele>1469.512695</ele><time>2009-08-17T14:51:56Z</time></trkpt>
<trkpt lat="46.65219784" lon="7.29874134"><ele>1472.396484</ele><time>2009-08-17T14:52:04Z</time></trkpt>
<trkpt lat="46.65202618" lon="7.29871988"><ele>1475.760986</ele><time>2009-08-17T14:52:17Z</time></trkpt>
<trkpt lat="46.65194035" lon="7.29869843"><ele>1476.722412</ele><time>2009-08-17T14:52:23Z</time></trkpt>
<trkpt lat="46.65185452" lon="7.29865551"><ele>1477.683594</ele><time>2009-08-17T14:52:30Z</time></trkpt>
<trkpt lat="46.65176868" lon="7.29863405"><ele>1479.125488</ele><time>2009-08-17T14:52:35Z</time></trkpt>
<trkpt lat="46.65172577" lon="7.29863405"><ele>1480.086914</ele><time>2009-08-17T14:52:38Z</time></trkpt>
<trkpt lat="46.65168285" lon="7.29861259"><ele>1480.567627</ele><time>2009-08-17T14:52:42Z</time></trkpt>
<trkpt lat="46.65166140" lon="7.29861259"><ele>1481.528809</ele><time>2009-08-17T14:52:49Z</time></trkpt>
<trkpt lat="46.65163994" lon="7.29859114"><ele>1481.528809</ele><time>2009-08-17T14:52:52Z</time></trkpt>
<trkpt lat="46.65161848" lon="7.29854822"><ele>1482.009521</ele><time>2009-08-17T14:52:56Z</time></trkpt>
<trkpt lat="46.65161848" lon="7.29852676"><ele>1482.490234</ele><time>2009-08-17T14:53:06Z</time></trkpt>
<trkpt lat="46.65161848" lon="7.29852676"><ele>1482.490234</ele><time>2009-08-17T14:54:09Z</time></trkpt>
<trkpt lat="46.65163994" lon="7.29852676"><ele>1482.490234</ele><time>2009-08-17T14:54:14Z</time></trkpt>
<trkpt lat="46.65183306" lon="7.29839802"><ele>1482.009521</ele><time>2009-08-17T14:54:23Z</time></trkpt>
<trkpt lat="46.65187597" lon="7.29822636"><ele>1483.451416</ele><time>2009-08-17T14:54:29Z</time></trkpt>
<trkpt lat="46.65194035" lon="7.29820490"><ele>1485.374268</ele><time>2009-08-17T14:54:37Z</time></trkpt>
<trkpt lat="46.65194035" lon="7.29820490"><ele>1484.413086</ele><time>2009-08-17T14:54:42Z</time></trkpt>
<trkpt lat="46.65213346" lon="7.29807615"><ele>1483.451416</ele><time>2009-08-17T14:54:51Z</time></trkpt>
<trkpt lat="46.65234804" lon="7.29788303"><ele>1482.970703</ele><time>2009-08-17T14:54:59Z</time></trkpt>
<trkpt lat="46.65258408" lon="7.29764700"><ele>1484.413086</ele><time>2009-08-17T14:55:09Z</time></trkpt>
<trkpt lat="46.65260553" lon="7.29758263"><ele>1484.893799</ele><time>2009-08-17T14:55:12Z</time></trkpt>
<trkpt lat="46.65260553" lon="7.29751825"><ele>1485.85498</ele><time>2009-08-17T14:55:15Z</time></trkpt>
<trkpt lat="46.65258408" lon="7.29743242"><ele>1486.816162</ele><time>2009-08-17T14:55:19Z</time></trkpt>
<trkpt lat="46.65254116" lon="7.29734659"><ele>1487.296875</ele><time>2009-08-17T14:55:23Z</time></trkpt>
<trkpt lat="46.65264845" lon="7.29711056"><ele>1488.258301</ele><time>2009-08-17T14:55:33Z</time></trkpt>
<trkpt lat="46.65286303" lon="7.29698181"><ele>1489.700195</ele><time>2009-08-17T14:55:45Z</time></trkpt>
<trkpt lat="46.65297031" lon="7.29687452"><ele>1491.14209</ele><time>2009-08-17T14:55:53Z</time></trkpt>
<trkpt lat="46.65309906" lon="7.29676723"><ele>1493.54541</ele><time>2009-08-17T14:56:03Z</time></trkpt>
<trkpt lat="46.65314198" lon="7.29672432"><ele>1494.987305</ele><time>2009-08-17T14:56:07Z</time></trkpt>
<trkpt lat="46.65322781" lon="7.29668140"><ele>1496.909912</ele><time>2009-08-17T14:56:12Z</time></trkpt>
<trkpt lat="46.65335655" lon="7.29655266"><ele>1498.83252</ele><time>2009-08-17T14:56:23Z</time></trkpt>
<trkpt lat="46.65346384" lon="7.29640245"><ele>1500.755371</ele><time>2009-08-17T14:56:35Z</time></trkpt>
<trkpt lat="46.65354967" lon="7.29625225"><ele>1503.158691</ele><time>2009-08-17T14:56:47Z</time></trkpt>
<trkpt lat="46.65361404" lon="7.29616642"><ele>1505.562012</ele><time>2009-08-17T14:56:54Z</time></trkpt>
<trkpt lat="46.65365696" lon="7.29612350"><ele>1506.523193</ele><time>2009-08-17T14:57:01Z</time></trkpt>
<trkpt lat="46.65365696" lon="7.29612350"><ele>1506.04248</ele><time>2009-08-17T14:57:03Z</time></trkpt>
<trkpt lat="46.65367842" lon="7.29612350"><ele>1506.04248</ele><time>2009-08-17T14:57:05Z</time></trkpt>
<trkpt lat="46.65369987" lon="7.29610205"><ele>1506.04248</ele><time>2009-08-17T14:57:07Z</time></trkpt>
<trkpt lat="46.65376425" lon="7.29605913"><ele>1507.965332</ele><time>2009-08-17T14:57:16Z</time></trkpt>
<trkpt lat="46.65382862" lon="7.29603767"><ele>1507.965332</ele><time>2009-08-17T14:57:23Z</time></trkpt>
<trkpt lat="46.65391445" lon="7.29597330"><ele>1509.887695</ele><time>2009-08-17T14:57:35Z</time></trkpt>
<trkpt lat="46.65400028" lon="7.29593039"><ele>1513.252441</ele><time>2009-08-17T14:57:46Z</time></trkpt>
<trkpt lat="46.65404320" lon="7.29586601"><ele>1514.213623</ele><time>2009-08-17T14:57:53Z</time></trkpt>
<trkpt lat="46.65406466" lon="7.29578018"><ele>1514.694336</ele><time>2009-08-17T14:57:58Z</time></trkpt>
<trkpt lat="46.65404320" lon="7.29573727"><ele>1515.175049</ele><time>2009-08-17T14:58:01Z</time></trkpt>
<trkpt lat="46.65400028" lon="7.29567289"><ele>1516.136475</ele><time>2009-08-17T14:58:12Z</time></trkpt>
<trkpt lat="46.65400028" lon="7.29567289"><ele>1516.136475</ele><time>2009-08-17T14:58:39Z</time></trkpt>
<trkpt lat="46.65397882" lon="7.29567289"><ele>1516.136475</ele><time>2009-08-17T14:58:51Z</time></trkpt>
<trkpt lat="46.65391445" lon="7.29567289"><ele>1517.0979</ele><time>2009-08-17T14:58:55Z</time></trkpt>
<trkpt lat="46.65382862" lon="7.29569435"><ele>1518.539795</ele><time>2009-08-17T14:59:04Z</time></trkpt>
<trkpt lat="46.65372133" lon="7.29571581"><ele>1518.539795</ele><time>2009-08-17T14:59:24Z</time></trkpt>
<trkpt lat="46.65335655" lon="7.29569435"><ele>1519.981689</ele><time>2009-08-17T14:59:34Z</time></trkpt>
<trkpt lat="46.65299177" lon="7.29562998"><ele>1520.943115</ele><time>2009-08-17T14:59:42Z</time></trkpt>
<trkpt lat="46.65271282" lon="7.29552269"><ele>1522.865723</ele><time>2009-08-17T14:59:49Z</time></trkpt>
<trkpt lat="46.65247679" lon="7.29541540"><ele>1523.346436</ele><time>2009-08-17T14:59:55Z</time></trkpt>
<trkpt lat="46.65234804" lon="7.29530811"><ele>1522.865723</ele><time>2009-08-17T14:59:58Z</time></trkpt>
<trkpt lat="46.65185452" lon="7.29496479"><ele>1521.423584</ele><time>2009-08-17T15:00:09Z</time></trkpt>
<trkpt lat="46.65157557" lon="7.29481459"><ele>1520.462402</ele><time>2009-08-17T15:00:15Z</time></trkpt>
<trkpt lat="46.65138245" lon="7.29475021"><ele>1520.943115</ele><time>2009-08-17T15:00:19Z</time></trkpt>
<trkpt lat="46.65078163" lon="7.29466438"><ele>1517.0979</ele><time>2009-08-17T15:00:29Z</time></trkpt>
<trkpt lat="46.65037394" lon="7.29468584"><ele>1513.252441</ele><time>2009-08-17T15:00:35Z</time></trkpt>
<trkpt lat="46.65028811" lon="7.29475021"><ele>1512.291016</ele><time>2009-08-17T15:00:40Z</time></trkpt>
<trkpt lat="46.65026665" lon="7.29472876"><ele>1512.291016</ele><time>2009-08-17T15:00:42Z</time></trkpt>
<trkpt lat="46.65026665" lon="7.29470730"><ele>1512.291016</ele><time>2009-08-17T15:00:50Z</time></trkpt>
<trkpt lat="46.65024519" lon="7.29470730"><ele>1511.810547</ele><time>2009-08-17T15:01:00Z</time></trkpt>
<trkpt lat="46.65013790" lon="7.29462147"><ele>1510.368408</ele><time>2009-08-17T15:01:07Z</time></trkpt>
<trkpt lat="46.65003061" lon="7.29453564"><ele>1509.407227</ele><time>2009-08-17T15:01:09Z</time></trkpt>
<trkpt lat="46.65000916" lon="7.29423523"><ele>1508.926514</ele><time>2009-08-17T15:01:13Z</time></trkpt>
<trkpt lat="46.64998770" lon="7.29393482"><ele>1509.887695</ele><time>2009-08-17T15:01:20Z</time></trkpt>
<trkpt lat="46.64979458" lon="7.29395628"><ele>1509.407227</ele><time>2009-08-17T15:01:27Z</time></trkpt>
<trkpt lat="46.64975166" lon="7.29395628"><ele>1508.926514</ele><time>2009-08-17T15:01:28Z</time></trkpt>
<trkpt lat="46.64958000" lon="7.29408503"><ele>1507.965332</ele><time>2009-08-17T15:01:32Z</time></trkpt>
<trkpt lat="46.64949417" lon="7.29412794"><ele>1507.003906</ele><time>2009-08-17T15:01:34Z</time></trkpt>
<trkpt lat="46.64940834" lon="7.29414940"><ele>1505.562012</ele><time>2009-08-17T15:01:36Z</time></trkpt>
<trkpt lat="46.64915085" lon="7.29412794"><ele>1501.236084</ele><time>2009-08-17T15:01:43Z</time></trkpt>
<trkpt lat="46.64893627" lon="7.29399920"><ele>1496.909912</ele><time>2009-08-17T15:01:49Z</time></trkpt>
<trkpt lat="46.64870024" lon="7.29378462"><ele>1494.026123</ele><time>2009-08-17T15:01:55Z</time></trkpt>
<trkpt lat="46.64859295" lon="7.29369879"><ele>1493.064697</ele><time>2009-08-17T15:01:58Z</time></trkpt>
<trkpt lat="46.64846420" lon="7.29359150"><ele>1490.661377</ele><time>2009-08-17T15:02:02Z</time></trkpt>
<trkpt lat="46.64839983" lon="7.29354858"><ele>1489.700195</ele><time>2009-08-17T15:02:04Z</time></trkpt>
<trkpt lat="46.64820671" lon="7.29346275"><ele>1486.816162</ele><time>2009-08-17T15:02:09Z</time></trkpt>
<trkpt lat="46.64803505" lon="7.29339838"><ele>1484.413086</ele><time>2009-08-17T15:02:13Z</time></trkpt>
<trkpt lat="46.64784193" lon="7.29324818"><ele>1481.528809</ele><time>2009-08-17T15:02:18Z</time></trkpt>
<trkpt lat="46.64775610" lon="7.29320526"><ele>1480.567627</ele><time>2009-08-17T15:02:20Z</time></trkpt>
<trkpt lat="46.64758444" lon="7.29311943"><ele>1479.125488</ele><time>2009-08-17T15:02:24Z</time></trkpt>
<trkpt lat="46.64724112" lon="7.29303360"><ele>1476.241699</ele><time>2009-08-17T15:02:32Z</time></trkpt>
<trkpt lat="46.64719820" lon="7.29303360"><ele>1475.280273</ele><time>2009-08-17T15:02:38Z</time></trkpt>
<trkpt lat="46.64717674" lon="7.29299068"><ele>1474.319092</ele><time>2009-08-17T15:02:48Z</time></trkpt>
<trkpt lat="46.64717674" lon="7.29296923"><ele>1474.319092</ele><time>2009-08-17T15:02:59Z</time></trkpt>
<trkpt lat="46.64711237" lon="7.29290485"><ele>1472.877197</ele><time>2009-08-17T15:03:02Z</time></trkpt>
<trkpt lat="46.64698362" lon="7.29271173"><ele>1471.915771</ele><time>2009-08-17T15:03:06Z</time></trkpt>
<trkpt lat="46.64685488" lon="7.29258299"><ele>1470.473877</ele><time>2009-08-17T15:03:10Z</time></trkpt>
<trkpt lat="46.64672613" lon="7.29249716"><ele>1468.070557</ele><time>2009-08-17T15:03:13Z</time></trkpt>
<trkpt lat="46.64642572" lon="7.29238987"><ele>1462.30249</ele><time>2009-08-17T15:03:19Z</time></trkpt>
<trkpt lat="46.64621115" lon="7.29236841"><ele>1458.457275</ele><time>2009-08-17T15:03:24Z</time></trkpt>
<trkpt lat="46.64610386" lon="7.29238987"><ele>1457.015381</ele><time>2009-08-17T15:03:26Z</time></trkpt>
<trkpt lat="46.64586782" lon="7.29236841"><ele>1453.650879</ele><time>2009-08-17T15:03:30Z</time></trkpt>
<trkpt lat="46.64569616" lon="7.29249716"><ele>1449.324707</ele><time>2009-08-17T15:03:35Z</time></trkpt>
<trkpt lat="46.64558887" lon="7.29249716"><ele>1447.4021</ele><time>2009-08-17T15:03:39Z</time></trkpt>
<trkpt lat="46.64554596" lon="7.29247570"><ele>1447.4021</ele><time>2009-08-17T15:03:40Z</time></trkpt>
<trkpt lat="46.64524555" lon="7.29226112"><ele>1444.998779</ele><time>2009-08-17T15:03:46Z</time></trkpt>
<trkpt lat="46.64518118" lon="7.29219675"><ele>1444.518066</ele><time>2009-08-17T15:03:47Z</time></trkpt>
<trkpt lat="46.64511681" lon="7.29213238"><ele>1444.037598</ele><time>2009-08-17T15:03:48Z</time></trkpt>
<trkpt lat="46.64466619" lon="7.29178905"><ele>1440.672852</ele><time>2009-08-17T15:03:54Z</time></trkpt>
<trkpt lat="46.64453745" lon="7.29159594"><ele>1440.192383</ele><time>2009-08-17T15:03:57Z</time></trkpt>
<trkpt lat="46.64438725" lon="7.29153156"><ele>1440.672852</ele><time>2009-08-17T15:04:02Z</time></trkpt>
<trkpt lat="46.64432287" lon="7.29151011"><ele>1440.672852</ele><time>2009-08-17T15:04:05Z</time></trkpt>
<trkpt lat="46.64427996" lon="7.29148865"><ele>1441.153564</ele><time>2009-08-17T15:04:12Z</time></trkpt>
<trkpt lat="46.64419413" lon="7.29144573"><ele>1442.595703</ele><time>2009-08-17T15:04:20Z</time></trkpt>
<trkpt lat="46.64415121" lon="7.29140282"><ele>1443.076172</ele><time>2009-08-17T15:04:25Z</time></trkpt>
<trkpt lat="46.64412975" lon="7.29138136"><ele>1443.076172</ele><time>2009-08-17T15:04:28Z</time></trkpt>
<trkpt lat="46.64404392" lon="7.29133844"><ele>1442.595703</ele><time>2009-08-17T15:04:37Z</time></trkpt>
<trkpt lat="46.64402246" lon="7.29133844"><ele>1443.556885</ele><time>2009-08-17T15:04:47Z</time></trkpt>
<trkpt lat="46.64402246" lon="7.29131699"><ele>1443.556885</ele><time>2009-08-17T15:04:59Z</time></trkpt>
<trkpt lat="46.64402246" lon="7.29131699"><ele>1443.556885</ele><time>2009-08-17T15:05:00Z</time></trkpt>
<trkpt lat="46.64391518" lon="7.29123116"><ele>1443.556885</ele><time>2009-08-17T15:05:05Z</time></trkpt>
<trkpt lat="46.64382935" lon="7.29116678"><ele>1443.556885</ele><time>2009-08-17T15:05:07Z</time></trkpt>
<trkpt lat="46.64370060" lon="7.29112387"><ele>1443.556885</ele><time>2009-08-17T15:05:10Z</time></trkpt>
<trkpt lat="46.64342165" lon="7.29101658"><ele>1443.556885</ele><time>2009-08-17T15:05:15Z</time></trkpt>
<trkpt lat="46.64290667" lon="7.29086637"><ele>1444.037598</ele><time>2009-08-17T15:05:24Z</time></trkpt>
<trkpt lat="46.64252043" lon="7.29071617"><ele>1442.595703</ele><time>2009-08-17T15:05:32Z</time></trkpt>
<trkpt lat="46.64245605" lon="7.29069471"><ele>1441.634277</ele><time>2009-08-17T15:05:38Z</time></trkpt>
<trkpt lat="46.64254189" lon="7.29054451"><ele>1439.71167</ele><time>2009-08-17T15:05:44Z</time></trkpt>
<trkpt lat="46.64264917" lon="7.29041576"><ele>1437.789063</ele><time>2009-08-17T15:05:47Z</time></trkpt>
<trkpt lat="46.64277792" lon="7.29022264"><ele>1435.385498</ele><time>2009-08-17T15:05:50Z</time></trkpt>
<trkpt lat="46.64294958" lon="7.28992224"><ele>1430.579102</ele><time>2009-08-17T15:05:54Z</time></trkpt>
<trkpt lat="46.64324999" lon="7.28975058"><ele>1424.811279</ele><time>2009-08-17T15:05:59Z</time></trkpt>
<trkpt lat="46.64385080" lon="7.28955746"><ele>1415.678711</ele><time>2009-08-17T15:06:06Z</time></trkpt>
<trkpt lat="46.64397955" lon="7.28953600"><ele>1413.755859</ele><time>2009-08-17T15:06:08Z</time></trkpt>
<trkpt lat="46.64419413" lon="7.28955746"><ele>1410.87207</ele><time>2009-08-17T15:06:11Z</time></trkpt>
<trkpt lat="46.64481640" lon="7.28945017"><ele>1404.623535</ele><time>2009-08-17T15:06:18Z</time></trkpt>
<trkpt lat="46.64573908" lon="7.28925705"><ele>1397.413574</ele><time>2009-08-17T15:06:27Z</time></trkpt>
<trkpt lat="46.64644718" lon="7.28908539"><ele>1390.203857</ele><time>2009-08-17T15:06:34Z</time></trkpt>
<trkpt lat="46.64679050" lon="7.28893518"><ele>1385.396973</ele><time>2009-08-17T15:06:38Z</time></trkpt>
<trkpt lat="46.64775610" lon="7.28882790"><ele>1374.342041</ele><time>2009-08-17T15:06:47Z</time></trkpt>
<trkpt lat="46.64876461" lon="7.28878498"><ele>1365.690186</ele><time>2009-08-17T15:06:56Z</time></trkpt>
<trkpt lat="46.65003061" lon="7.28874207"><ele>1360.402832</ele><time>2009-08-17T15:07:09Z</time></trkpt>
<trkpt lat="46.65020227" lon="7.28874207"><ele>1359.44165</ele><time>2009-08-17T15:07:11Z</time></trkpt>
<trkpt lat="46.65095329" lon="7.28848457"><ele>1355.596191</ele><time>2009-08-17T15:07:20Z</time></trkpt>
<trkpt lat="46.65118933" lon="7.28839874"><ele>1355.115479</ele><time>2009-08-17T15:07:23Z</time></trkpt>
<trkpt lat="46.65144682" lon="7.28809834"><ele>1356.076904</ele><time>2009-08-17T15:07:28Z</time></trkpt>
<trkpt lat="46.65148973" lon="7.28803396"><ele>1356.076904</ele><time>2009-08-17T15:07:29Z</time></trkpt>
<trkpt lat="46.65166140" lon="7.28788376"><ele>1356.557617</ele><time>2009-08-17T15:07:33Z</time></trkpt>
<trkpt lat="46.65174723" lon="7.28784084"><ele>1357.03833</ele><time>2009-08-17T15:07:35Z</time></trkpt>
<trkpt lat="46.65189743" lon="7.28775501"><ele>1357.03833</ele><time>2009-08-17T15:07:38Z</time></trkpt>
<trkpt lat="46.65194035" lon="7.28749752"><ele>1356.557617</ele><time>2009-08-17T15:07:43Z</time></trkpt>
<trkpt lat="46.65202618" lon="7.28702545"><ele>1353.192871</ele><time>2009-08-17T15:07:50Z</time></trkpt>
<trkpt lat="46.65217638" lon="7.28685379"><ele>1350.789551</ele><time>2009-08-17T15:07:53Z</time></trkpt>
<trkpt lat="46.65264845" lon="7.28655338"><ele>1344.541016</ele><time>2009-08-17T15:08:00Z</time></trkpt>
<trkpt lat="46.65277719" lon="7.28644609"><ele>1342.137939</ele><time>2009-08-17T15:08:02Z</time></trkpt>
<trkpt lat="46.65324926" lon="7.28629589"><ele>1334.927979</ele><time>2009-08-17T15:08:08Z</time></trkpt>
<trkpt lat="46.65378571" lon="7.28618860"><ele>1325.79541</ele><time>2009-08-17T15:08:15Z</time></trkpt>
<trkpt lat="46.65391445" lon="7.28616714"><ele>1322.911377</ele><time>2009-08-17T15:08:17Z</time></trkpt>
<trkpt lat="46.65412903" lon="7.28618860"><ele>1318.585449</ele><time>2009-08-17T15:08:20Z</time></trkpt>
<trkpt lat="46.65447235" lon="7.28648901"><ele>1308.972412</ele><time>2009-08-17T15:08:26Z</time></trkpt>
<trkpt lat="46.65451527" lon="7.28655338"><ele>1307.530273</ele><time>2009-08-17T15:08:27Z</time></trkpt>
<trkpt lat="46.65468693" lon="7.28676796"><ele>1300.801025</ele><time>2009-08-17T15:08:32Z</time></trkpt>
<trkpt lat="46.65481567" lon="7.28659630"><ele>1296.955811</ele><time>2009-08-17T15:08:36Z</time></trkpt>
<trkpt lat="46.65507317" lon="7.28621006"><ele>1289.74585</ele><time>2009-08-17T15:08:42Z</time></trkpt>
<trkpt lat="46.65539503" lon="7.28601694"><ele>1282.536133</ele><time>2009-08-17T15:08:47Z</time></trkpt>
<trkpt lat="46.65593147" lon="7.28580236"><ele>1269.077637</ele><time>2009-08-17T15:08:55Z</time></trkpt>
<trkpt lat="46.65599585" lon="7.28558779"><ele>1263.790283</ele><time>2009-08-17T15:08:59Z</time></trkpt>
<trkpt lat="46.65601730" lon="7.28492260"><ele>1256.580322</ele><time>2009-08-17T15:09:05Z</time></trkpt>
<trkpt lat="46.65603876" lon="7.28468657"><ele>1253.21582</ele><time>2009-08-17T15:09:08Z</time></trkpt>
<trkpt lat="46.65618896" lon="7.28449345"><ele>1248.40918</ele><time>2009-08-17T15:09:13Z</time></trkpt>
<trkpt lat="46.65629625" lon="7.28455782"><ele>1246.486816</ele><time>2009-08-17T15:09:15Z</time></trkpt>
<trkpt lat="46.65648937" lon="7.28468657"><ele>1244.083496</ele><time>2009-08-17T15:09:18Z</time></trkpt>
<trkpt lat="46.65666103" lon="7.28483677"><ele>1240.718506</ele><time>2009-08-17T15:09:21Z</time></trkpt>
<trkpt lat="46.65693998" lon="7.28487968"><ele>1235.912109</ele><time>2009-08-17T15:09:25Z</time></trkpt>
<trkpt lat="46.65739059" lon="7.28507280"><ele>1230.144287</ele><time>2009-08-17T15:09:31Z</time></trkpt>
<trkpt lat="46.65766954" lon="7.28528738"><ele>1228.22168</ele><time>2009-08-17T15:09:36Z</time></trkpt>
<trkpt lat="46.65790558" lon="7.28537321"><ele>1226.779541</ele><time>2009-08-17T15:09:40Z</time></trkpt>
<trkpt lat="46.65812016" lon="7.28539467"><ele>1225.818115</ele><time>2009-08-17T15:09:43Z</time></trkpt>
<trkpt lat="46.65835619" lon="7.28545904"><ele>1225.818115</ele><time>2009-08-17T15:09:46Z</time></trkpt>
<trkpt lat="46.65869951" lon="7.28548050"><ele>1225.818115</ele><time>2009-08-17T15:09:50Z</time></trkpt>
<trkpt lat="46.65927887" lon="7.28567362"><ele>1224.376221</ele><time>2009-08-17T15:09:57Z</time></trkpt>
<trkpt lat="46.65942907" lon="7.28571653"><ele>1223.895508</ele><time>2009-08-17T15:09:59Z</time></trkpt>
<trkpt lat="46.65957928" lon="7.28599548"><ele>1221.9729</ele><time>2009-08-17T15:10:03Z</time></trkpt>
<trkpt lat="46.65972948" lon="7.28614569"><ele>1220.050293</ele><time>2009-08-17T15:10:07Z</time></trkpt>
<trkpt lat="46.65987968" lon="7.28603840"><ele>1218.127686</ele><time>2009-08-17T15:10:10Z</time></trkpt>
<trkpt lat="46.65996552" lon="7.28595257"><ele>1217.166504</ele><time>2009-08-17T15:10:12Z</time></trkpt>
<trkpt lat="46.66024446" lon="7.28590965"><ele>1214.763184</ele><time>2009-08-17T15:10:16Z</time></trkpt>
<trkpt lat="46.66078091" lon="7.28599548"><ele>1211.87915</ele><time>2009-08-17T15:10:22Z</time></trkpt>
<trkpt lat="46.66093111" lon="7.28605986"><ele>1210.437012</ele><time>2009-08-17T15:10:24Z</time></trkpt>
<trkpt lat="46.66121006" lon="7.28608131"><ele>1207.07251</ele><time>2009-08-17T15:10:29Z</time></trkpt>
<trkpt lat="46.66146755" lon="7.28640318"><ele>1202.746582</ele><time>2009-08-17T15:10:34Z</time></trkpt>
<trkpt lat="46.66155338" lon="7.28648901"><ele>1201.7854</ele><time>2009-08-17T15:10:35Z</time></trkpt>
<trkpt lat="46.66208982" lon="7.28691816"><ele>1194.575195</ele><time>2009-08-17T15:10:42Z</time></trkpt>
<trkpt lat="46.66213274" lon="7.28693962"><ele>1193.133301</ele><time>2009-08-17T15:10:43Z</time></trkpt>
<trkpt lat="46.66241169" lon="7.28691816"><ele>1191.210693</ele><time>2009-08-17T15:10:47Z</time></trkpt>
<trkpt lat="46.66254044" lon="7.28683233"><ele>1190.72998</ele><time>2009-08-17T15:10:49Z</time></trkpt>
<trkpt lat="46.66284084" lon="7.28693962"><ele>1190.72998</ele><time>2009-08-17T15:10:54Z</time></trkpt>
<trkpt lat="46.66290522" lon="7.28698254"><ele>1190.72998</ele><time>2009-08-17T15:10:55Z</time></trkpt>
<trkpt lat="46.66311979" lon="7.28711128"><ele>1189.768799</ele><time>2009-08-17T15:10:59Z</time></trkpt>
<trkpt lat="46.66344166" lon="7.28711128"><ele>1186.884766</ele><time>2009-08-17T15:11:04Z</time></trkpt>
<trkpt lat="46.66369915" lon="7.28728294"><ele>1184.481689</ele><time>2009-08-17T15:11:08Z</time></trkpt>
<trkpt lat="46.66382790" lon="7.28743315"><ele>1182.559082</ele><time>2009-08-17T15:11:10Z</time></trkpt>
<trkpt lat="46.66393518" lon="7.28756189"><ele>1180.636475</ele><time>2009-08-17T15:11:12Z</time></trkpt>
<trkpt lat="46.66404247" lon="7.28771210"><ele>1177.752197</ele><time>2009-08-17T15:11:14Z</time></trkpt>
<trkpt lat="46.66427851" lon="7.28771210"><ele>1171.503662</ele><time>2009-08-17T15:11:18Z</time></trkpt>
<trkpt lat="46.66460037" lon="7.28779793"><ele>1162.851807</ele><time>2009-08-17T15:11:23Z</time></trkpt>
<trkpt lat="46.66507244" lon="7.28809834"><ele>1152.758057</ele><time>2009-08-17T15:11:28Z</time></trkpt>
<trkpt lat="46.66524410" lon="7.28818417"><ele>1149.874268</ele><time>2009-08-17T15:11:30Z</time></trkpt>
<trkpt lat="46.66558743" lon="7.28814125"><ele>1144.106201</ele><time>2009-08-17T15:11:35Z</time></trkpt>
<trkpt lat="46.66563034" lon="7.28809834"><ele>1143.144775</ele><time>2009-08-17T15:11:36Z</time></trkpt>
<trkpt lat="46.66569471" lon="7.28807688"><ele>1141.222168</ele><time>2009-08-17T15:11:37Z</time></trkpt>
<trkpt lat="46.66580200" lon="7.28809834"><ele>1138.338379</ele><time>2009-08-17T15:11:39Z</time></trkpt>
<trkpt lat="46.66620970" lon="7.28835583"><ele>1129.205566</ele><time>2009-08-17T15:11:44Z</time></trkpt>
<trkpt lat="46.66655302" lon="7.28861332"><ele>1121.515137</ele><time>2009-08-17T15:11:48Z</time></trkpt>
<trkpt lat="46.66672468" lon="7.28897810"><ele>1115.266602</ele><time>2009-08-17T15:11:52Z</time></trkpt>
<trkpt lat="46.66674614" lon="7.28902102"><ele>1114.305176</ele><time>2009-08-17T15:11:53Z</time></trkpt>
<trkpt lat="46.66693926" lon="7.28906393"><ele>1108.537354</ele><time>2009-08-17T15:11:57Z</time></trkpt>
<trkpt lat="46.66713238" lon="7.28891373"><ele>1103.730957</ele><time>2009-08-17T15:12:00Z</time></trkpt>
<trkpt lat="46.66777611" lon="7.28852749"><ele>1089.311035</ele><time>2009-08-17T15:12:08Z</time></trkpt>
<trkpt lat="46.66829109" lon="7.28861332"><ele>1082.101074</ele><time>2009-08-17T15:12:14Z</time></trkpt>
<trkpt lat="46.66899920" lon="7.28882790"><ele>1073.449463</ele><time>2009-08-17T15:12:21Z</time></trkpt>
<trkpt lat="46.66908503" lon="7.28887081"><ele>1072.488037</ele><time>2009-08-17T15:12:22Z</time></trkpt>
<trkpt lat="46.66944981" lon="7.28904247"><ele>1068.162109</ele><time>2009-08-17T15:12:27Z</time></trkpt>
<trkpt lat="46.66957855" lon="7.28902102"><ele>1067.200684</ele><time>2009-08-17T15:12:29Z</time></trkpt>
<trkpt lat="46.66964293" lon="7.28902102"><ele>1067.200684</ele><time>2009-08-17T15:12:30Z</time></trkpt>
<trkpt lat="46.66981459" lon="7.28902102"><ele>1066.239258</ele><time>2009-08-17T15:12:33Z</time></trkpt>
<trkpt lat="46.67013645" lon="7.28872061"><ele>1063.355469</ele><time>2009-08-17T15:12:39Z</time></trkpt>
<trkpt lat="46.67013645" lon="7.28861332"><ele>1062.394043</ele><time>2009-08-17T15:12:40Z</time></trkpt>
<trkpt lat="46.67015791" lon="7.28852749"><ele>1061.913574</ele><time>2009-08-17T15:12:41Z</time></trkpt>
<trkpt lat="46.67028666" lon="7.28805542"><ele>1060.471436</ele><time>2009-08-17T15:12:46Z</time></trkpt>
<trkpt lat="46.67035103" lon="7.28766918"><ele>1059.510254</ele><time>2009-08-17T15:12:51Z</time></trkpt>
<trkpt lat="46.67037249" lon="7.28754044"><ele>1059.510254</ele><time>2009-08-17T15:12:53Z</time></trkpt>
<trkpt lat="46.67050123" lon="7.28732586"><ele>1059.510254</ele><time>2009-08-17T15:12:58Z</time></trkpt>
<trkpt lat="46.67065144" lon="7.28730440"><ele>1059.029541</ele><time>2009-08-17T15:13:02Z</time></trkpt>
<trkpt lat="46.67069435" lon="7.28734732"><ele>1059.029541</ele><time>2009-08-17T15:13:03Z</time></trkpt>
<trkpt lat="46.67073727" lon="7.28739023"><ele>1059.029541</ele><time>2009-08-17T15:13:04Z</time></trkpt>
<trkpt lat="46.67105913" lon="7.28758335"><ele>1059.029541</ele><time>2009-08-17T15:13:09Z</time></trkpt>
<trkpt lat="46.67146683" lon="7.28784084"><ele>1058.548828</ele><time>2009-08-17T15:13:15Z</time></trkpt>
<trkpt lat="46.67157412" lon="7.28820562"><ele>1058.548828</ele><time>2009-08-17T15:13:19Z</time></trkpt>
<trkpt lat="46.67155266" lon="7.28842020"><ele>1057.587646</ele><time>2009-08-17T15:13:21Z</time></trkpt>
<trkpt lat="46.67155266" lon="7.28891373"><ele>1056.145508</ele><time>2009-08-17T15:13:26Z</time></trkpt>
<trkpt lat="46.67165995" lon="7.28897810"><ele>1056.145508</ele><time>2009-08-17T15:13:30Z</time></trkpt>
<trkpt lat="46.67185307" lon="7.28902102"><ele>1056.145508</ele><time>2009-08-17T15:13:35Z</time></trkpt>
<trkpt lat="46.67187452" lon="7.28914976"><ele>1056.626221</ele><time>2009-08-17T15:13:37Z</time></trkpt>
<trkpt lat="46.67189598" lon="7.28929996"><ele>1056.626221</ele><time>2009-08-17T15:13:39Z</time></trkpt>
<trkpt lat="46.67191744" lon="7.28953600"><ele>1057.106934</ele><time>2009-08-17T15:13:42Z</time></trkpt>
<trkpt lat="46.67193890" lon="7.28977203"><ele>1058.068359</ele><time>2009-08-17T15:13:45Z</time></trkpt>
<trkpt lat="46.67208910" lon="7.29009390"><ele>1059.510254</ele><time>2009-08-17T15:13:50Z</time></trkpt>
<trkpt lat="46.67228222" lon="7.29022264"><ele>1059.029541</ele><time>2009-08-17T15:13:54Z</time></trkpt>
<trkpt lat="46.67232513" lon="7.29022264"><ele>1058.548828</ele><time>2009-08-17T15:13:55Z</time></trkpt>
<trkpt lat="46.67251825" lon="7.29020119"><ele>1058.068359</ele><time>2009-08-17T15:13:59Z</time></trkpt>
<trkpt lat="46.67264700" lon="7.29022264"><ele>1058.068359</ele><time>2009-08-17T15:14:02Z</time></trkpt>
<trkpt lat="46.67286158" lon="7.29043722"><ele>1058.548828</ele><time>2009-08-17T15:14:08Z</time></trkpt>
<trkpt lat="46.67290449" lon="7.29048014"><ele>1058.548828</ele><time>2009-08-17T15:14:09Z</time></trkpt>
<trkpt lat="46.67294741" lon="7.29071617"><ele>1059.510254</ele><time>2009-08-17T15:14:14Z</time></trkpt>
<trkpt lat="46.67296886" lon="7.29073763"><ele>1060.471436</ele><time>2009-08-17T15:14:21Z</time></trkpt>
<trkpt lat="46.67296886" lon="7.29075909"><ele>1060.471436</ele><time>2009-08-17T15:14:32Z</time></trkpt>
<trkpt lat="46.67311907" lon="7.29078054"><ele>1059.990723</ele><time>2009-08-17T15:14:37Z</time></trkpt>
<trkpt lat="46.67326927" lon="7.29075909"><ele>1060.952148</ele><time>2009-08-17T15:14:41Z</time></trkpt>
<trkpt lat="46.67339802" lon="7.29080200"><ele>1060.952148</ele><time>2009-08-17T15:14:44Z</time></trkpt>
<trkpt lat="46.67361259" lon="7.29082346"><ele>1059.510254</ele><time>2009-08-17T15:14:48Z</time></trkpt>
<trkpt lat="46.67384863" lon="7.29093075"><ele>1058.068359</ele><time>2009-08-17T15:14:52Z</time></trkpt>
<trkpt lat="46.67440653" lon="7.29116678"><ele>1054.703613</ele><time>2009-08-17T15:14:59Z</time></trkpt>
<trkpt lat="46.67453527" lon="7.29123116"><ele>1053.261719</ele><time>2009-08-17T15:15:01Z</time></trkpt>
<trkpt lat="46.67494297" lon="7.29142427"><ele>1047.493652</ele><time>2009-08-17T15:15:07Z</time></trkpt>
<trkpt lat="46.67500734" lon="7.29148865"><ele>1047.012939</ele><time>2009-08-17T15:15:08Z</time></trkpt>
<trkpt lat="46.67515755" lon="7.29157448"><ele>1045.571045</ele><time>2009-08-17T15:15:10Z</time></trkpt>
<trkpt lat="46.67539358" lon="7.29172468"><ele>1043.167725</ele><time>2009-08-17T15:15:14Z</time></trkpt>
<trkpt lat="46.67556524" lon="7.29174614"><ele>1041.72583</ele><time>2009-08-17T15:15:18Z</time></trkpt>
<trkpt lat="46.67580128" lon="7.29196072"><ele>1041.72583</ele><time>2009-08-17T15:15:23Z</time></trkpt>
<trkpt lat="46.67599440" lon="7.29217529"><ele>1041.245117</ele><time>2009-08-17T15:15:27Z</time></trkpt>
<trkpt lat="46.67612314" lon="7.29236841"><ele>1041.245117</ele><time>2009-08-17T15:15:30Z</time></trkpt>
<trkpt lat="46.67627335" lon="7.29249716"><ele>1040.764404</ele><time>2009-08-17T15:15:33Z</time></trkpt>
<trkpt lat="46.67638063" lon="7.29271173"><ele>1041.245117</ele><time>2009-08-17T15:15:37Z</time></trkpt>
<trkpt lat="46.67640209" lon="7.29286194"><ele>1041.245117</ele><time>2009-08-17T15:15:39Z</time></trkpt>
<trkpt lat="46.67661667" lon="7.29307652"><ele>1040.283936</ele><time>2009-08-17T15:15:44Z</time></trkpt>
<trkpt lat="46.67672396" lon="7.29311943"><ele>1039.803223</ele><time>2009-08-17T15:15:46Z</time></trkpt>
<trkpt lat="46.67689562" lon="7.29303360"><ele>1039.32251</ele><time>2009-08-17T15:15:50Z</time></trkpt>
<trkpt lat="46.67698145" lon="7.29266882"><ele>1038.361328</ele><time>2009-08-17T15:15:55Z</time></trkpt>
<trkpt lat="46.67728186" lon="7.29269028"><ele>1038.361328</ele><time>2009-08-17T15:16:00Z</time></trkpt>
<trkpt lat="46.67741060" lon="7.29288340"><ele>1037.399902</ele><time>2009-08-17T15:16:03Z</time></trkpt>
<trkpt lat="46.67749643" lon="7.29305506"><ele>1036.919189</ele><time>2009-08-17T15:16:05Z</time></trkpt>
<trkpt lat="46.67771101" lon="7.29382753"><ele>1035.477051</ele><time>2009-08-17T15:16:14Z</time></trkpt>
<trkpt lat="46.67794704" lon="7.29393482"><ele>1034.515869</ele><time>2009-08-17T15:16:18Z</time></trkpt>
<trkpt lat="46.67801142" lon="7.29393482"><ele>1034.515869</ele><time>2009-08-17T15:16:19Z</time></trkpt>
<trkpt lat="46.67897701" lon="7.29384899"><ele>1034.515869</ele><time>2009-08-17T15:16:32Z</time></trkpt>
<trkpt lat="46.67994261" lon="7.29376316"><ele>1034.035156</ele><time>2009-08-17T15:16:45Z</time></trkpt>
<trkpt lat="46.68050051" lon="7.29374170"><ele>1034.515869</ele><time>2009-08-17T15:16:53Z</time></trkpt>
<trkpt lat="46.68071508" lon="7.29361296"><ele>1034.996582</ele><time>2009-08-17T15:16:57Z</time></trkpt>
<trkpt lat="46.68077946" lon="7.29318380"><ele>1034.515869</ele><time>2009-08-17T15:17:02Z</time></trkpt>
<trkpt lat="46.68073654" lon="7.29292631"><ele>1034.035156</ele><time>2009-08-17T15:17:05Z</time></trkpt>
<trkpt lat="46.68073654" lon="7.29284048"><ele>1034.035156</ele><time>2009-08-17T15:17:06Z</time></trkpt>
<trkpt lat="46.68080091" lon="7.29234695"><ele>1034.515869</ele><time>2009-08-17T15:17:12Z</time></trkpt>
<trkpt lat="46.68095112" lon="7.29223967"><ele>1033.554443</ele><time>2009-08-17T15:17:16Z</time></trkpt>
<trkpt lat="46.68118715" lon="7.29238987"><ele>1032.112549</ele><time>2009-08-17T15:17:21Z</time></trkpt>
<trkpt lat="46.68131590" lon="7.29243279"><ele>1031.631836</ele><time>2009-08-17T15:17:23Z</time></trkpt>
<trkpt lat="46.68144464" lon="7.29245424"><ele>1031.631836</ele><time>2009-08-17T15:17:25Z</time></trkpt>
<trkpt lat="46.68165922" lon="7.29258299"><ele>1032.112549</ele><time>2009-08-17T15:17:29Z</time></trkpt>
<trkpt lat="46.68180943" lon="7.29271173"><ele>1032.112549</ele><time>2009-08-17T15:17:32Z</time></trkpt>
<trkpt lat="46.68195963" lon="7.29292631"><ele>1031.631836</ele><time>2009-08-17T15:17:36Z</time></trkpt>
<trkpt lat="46.68223858" lon="7.29299068"><ele>1029.709229</ele><time>2009-08-17T15:17:41Z</time></trkpt>
<trkpt lat="46.68243170" lon="7.29299068"><ele>1028.267334</ele><time>2009-08-17T15:17:45Z</time></trkpt>
<trkpt lat="46.68271065" lon="7.29324818"><ele>1028.267334</ele><time>2009-08-17T15:17:52Z</time></trkpt>
<trkpt lat="46.68283939" lon="7.29331255"><ele>1028.267334</ele><time>2009-08-17T15:17:54Z</time></trkpt>
<trkpt lat="46.68294668" lon="7.29339838"><ele>1028.748047</ele><time>2009-08-17T15:17:56Z</time></trkpt>
<trkpt lat="46.68335438" lon="7.29384899"><ele>1025.864014</ele><time>2009-08-17T15:18:03Z</time></trkpt>
<trkpt lat="46.68363333" lon="7.29414940"><ele>1025.383301</ele><time>2009-08-17T15:18:08Z</time></trkpt>
<trkpt lat="46.68397665" lon="7.29444981"><ele>1022.980225</ele><time>2009-08-17T15:18:13Z</time></trkpt>
<trkpt lat="46.68419123" lon="7.29453564"><ele>1022.018799</ele><time>2009-08-17T15:18:16Z</time></trkpt>
<trkpt lat="46.68442726" lon="7.29477167"><ele>1021.057617</ele><time>2009-08-17T15:18:20Z</time></trkpt>
<trkpt lat="46.68479204" lon="7.29513645"><ele>1020.096191</ele><time>2009-08-17T15:18:26Z</time></trkpt>
<trkpt lat="46.68507099" lon="7.29524374"><ele>1019.134766</ele><time>2009-08-17T15:18:31Z</time></trkpt>
<trkpt lat="46.68515682" lon="7.29547977"><ele>1018.654053</ele><time>2009-08-17T15:18:35Z</time></trkpt>
<trkpt lat="46.68528557" lon="7.29575872"><ele>1019.134766</ele><time>2009-08-17T15:18:40Z</time></trkpt>
<trkpt lat="46.68532848" lon="7.29582310"><ele>1019.134766</ele><time>2009-08-17T15:18:41Z</time></trkpt>
<trkpt lat="46.68558598" lon="7.29588747"><ele>1018.17334</ele><time>2009-08-17T15:18:46Z</time></trkpt>
<trkpt lat="46.68607950" lon="7.29588747"><ele>1019.615479</ele><time>2009-08-17T15:18:55Z</time></trkpt>
<trkpt lat="46.68620825" lon="7.29590893"><ele>1018.654053</ele><time>2009-08-17T15:18:58Z</time></trkpt>
<trkpt lat="46.68637991" lon="7.29590893"><ele>1018.17334</ele><time>2009-08-17T15:19:01Z</time></trkpt>
<trkpt lat="46.68659449" lon="7.29599476"><ele>1017.212158</ele><time>2009-08-17T15:19:05Z</time></trkpt>
<trkpt lat="46.68678761" lon="7.29623079"><ele>1015.770264</ele><time>2009-08-17T15:19:09Z</time></trkpt>
<trkpt lat="46.68683052" lon="7.29627371"><ele>1015.289551</ele><time>2009-08-17T15:19:10Z</time></trkpt>
<trkpt lat="46.68698072" lon="7.29638100"><ele>1015.289551</ele><time>2009-08-17T15:19:13Z</time></trkpt>
<trkpt lat="46.68706656" lon="7.29642391"><ele>1015.770264</ele><time>2009-08-17T15:19:15Z</time></trkpt>
<trkpt lat="46.68734550" lon="7.29631662"><ele>1016.250732</ele><time>2009-08-17T15:19:20Z</time></trkpt>
<trkpt lat="46.68760300" lon="7.29638100"><ele>1015.770264</ele><time>2009-08-17T15:19:24Z</time></trkpt>
<trkpt lat="46.68779612" lon="7.29644537"><ele>1015.770264</ele><time>2009-08-17T15:19:27Z</time></trkpt>
<trkpt lat="46.68843985" lon="7.29659557"><ele>1015.770264</ele><time>2009-08-17T15:19:37Z</time></trkpt>
<trkpt lat="46.68850422" lon="7.29659557"><ele>1015.289551</ele><time>2009-08-17T15:19:38Z</time></trkpt>
<trkpt lat="46.68884754" lon="7.29650974"><ele>1015.770264</ele><time>2009-08-17T15:19:46Z</time></trkpt>
<trkpt lat="46.68886900" lon="7.29653120"><ele>1016.250732</ele><time>2009-08-17T15:19:54Z</time></trkpt>
<trkpt lat="46.68884754" lon="7.29655266"><ele>1016.250732</ele><time>2009-08-17T15:19:56Z</time></trkpt>
<trkpt lat="46.68895483" lon="7.29670286"><ele>1015.770264</ele><time>2009-08-17T15:20:02Z</time></trkpt>
<trkpt lat="46.68897629" lon="7.29672432"><ele>1015.289551</ele><time>2009-08-17T15:20:03Z</time></trkpt>
<trkpt lat="46.68906212" lon="7.29676723"><ele>1014.808838</ele><time>2009-08-17T15:20:05Z</time></trkpt>
<trkpt lat="46.68921232" lon="7.29674578"><ele>1014.328125</ele><time>2009-08-17T15:20:11Z</time></trkpt>
<trkpt lat="46.68934107" lon="7.29670286"><ele>1011.925049</ele><time>2009-08-17T15:20:16Z</time></trkpt>
<trkpt lat="46.68940544" lon="7.29672432"><ele>1011.444336</ele><time>2009-08-17T15:20:18Z</time></trkpt>
<trkpt lat="46.68946981" lon="7.29674578"><ele>1010.963623</ele><time>2009-08-17T15:20:20Z</time></trkpt>
<trkpt lat="46.68970585" lon="7.29672432"><ele>1009.041016</ele><time>2009-08-17T15:20:26Z</time></trkpt>
<trkpt lat="46.68974876" lon="7.29672432"><ele>1008.560303</ele><time>2009-08-17T15:20:27Z</time></trkpt>
<trkpt lat="46.68981314" lon="7.29670286"><ele>1008.079834</ele><time>2009-08-17T15:20:28Z</time></trkpt>
<trkpt lat="46.69002771" lon="7.29672432"><ele>1007.118408</ele><time>2009-08-17T15:20:32Z</time></trkpt>
<trkpt lat="46.69013500" lon="7.29678869"><ele>1006.156982</ele><time>2009-08-17T15:20:34Z</time></trkpt>
<trkpt lat="46.69028521" lon="7.29683161"><ele>1004.715088</ele><time>2009-08-17T15:20:37Z</time></trkpt>
<trkpt lat="46.69047832" lon="7.29693890"><ele>1001.350342</ele><time>2009-08-17T15:20:41Z</time></trkpt>
<trkpt lat="46.69054270" lon="7.29698181"><ele>1000.38916</ele><time>2009-08-17T15:20:42Z</time></trkpt>
<trkpt lat="46.69062853" lon="7.29708910"><ele>998.466309</ele><time>2009-08-17T15:20:44Z</time></trkpt>
<trkpt lat="46.69084311" lon="7.29728222"><ele>994.140625</ele><time>2009-08-17T15:20:49Z</time></trkpt>
<trkpt lat="46.69110060" lon="7.29726076"><ele>989.814697</ele><time>2009-08-17T15:20:54Z</time></trkpt>
<trkpt lat="46.69114351" lon="7.29723930"><ele>988.853516</ele><time>2009-08-17T15:20:55Z</time></trkpt>
<trkpt lat="46.69131517" lon="7.29713202"><ele>985.969238</ele><time>2009-08-17T15:20:58Z</time></trkpt>
<trkpt lat="46.69155121" lon="7.29711056"><ele>984.527344</ele><time>2009-08-17T15:21:02Z</time></trkpt>
<trkpt lat="46.69161558" lon="7.29711056"><ele>984.527344</ele><time>2009-08-17T15:21:03Z</time></trkpt>
<trkpt lat="46.69189453" lon="7.29719639"><ele>983.085205</ele><time>2009-08-17T15:21:07Z</time></trkpt>
<trkpt lat="46.69208765" lon="7.29723930"><ele>982.124023</ele><time>2009-08-17T15:21:10Z</time></trkpt>
<trkpt lat="46.69230223" lon="7.29734659"><ele>982.604736</ele><time>2009-08-17T15:21:14Z</time></trkpt>
<trkpt lat="46.69251680" lon="7.29762554"><ele>983.085205</ele><time>2009-08-17T15:21:19Z</time></trkpt>
<trkpt lat="46.69268847" lon="7.29788303"><ele>983.085205</ele><time>2009-08-17T15:21:23Z</time></trkpt>
<trkpt lat="46.69290304" lon="7.29807615"><ele>982.604736</ele><time>2009-08-17T15:21:27Z</time></trkpt>
<trkpt lat="46.69298887" lon="7.29820490"><ele>982.124023</ele><time>2009-08-17T15:21:29Z</time></trkpt>
<trkpt lat="46.69324636" lon="7.29831219"><ele>982.604736</ele><time>2009-08-17T15:21:34Z</time></trkpt>
<trkpt lat="46.69337511" lon="7.29831219"><ele>983.565918</ele><time>2009-08-17T15:21:39Z</time></trkpt>
<trkpt lat="46.69337511" lon="7.29831219"><ele>983.565918</ele><time>2009-08-17T15:21:42Z</time></trkpt>
<trkpt lat="46.69335365" lon="7.29826927"><ele>983.565918</ele><time>2009-08-17T15:21:46Z</time></trkpt>
<trkpt lat="46.69333220" lon="7.29826927"><ele>983.565918</ele><time>2009-08-17T15:21:48Z</time></trkpt>
<trkpt lat="46.69333220" lon="7.29826927"><ele>984.046631</ele><time>2009-08-17T15:21:51Z</time></trkpt>
<trkpt lat="46.69337511" lon="7.29822636"><ele>984.046631</ele><time>2009-08-17T15:22:00Z</time></trkpt>
<trkpt lat="46.69339657" lon="7.29820490"><ele>984.046631</ele><time>2009-08-17T15:22:10Z</time></trkpt>
<trkpt lat="46.69341803" lon="7.29818344"><ele>984.046631</ele><time>2009-08-17T15:22:12Z</time></trkpt>
<trkpt lat="46.69346094" lon="7.29807615"><ele>985.969238</ele><time>2009-08-17T15:22:17Z</time></trkpt>
<trkpt lat="46.69331074" lon="7.29799032"><ele>988.372803</ele><time>2009-08-17T15:22:24Z</time></trkpt>
<trkpt lat="46.69316053" lon="7.29796886"><ele>989.333984</ele><time>2009-08-17T15:22:30Z</time></trkpt>
<trkpt lat="46.69305325" lon="7.29794741"><ele>990.775879</ele><time>2009-08-17T15:22:39Z</time></trkpt>
<trkpt lat="46.69303179" lon="7.29794741"><ele>990.775879</ele><time>2009-08-17T15:22:49Z</time></trkpt>
<trkpt lat="46.69303179" lon="7.29794741"><ele>990.775879</ele><time>2009-08-17T15:23:04Z</time></trkpt>
</trkseg></trk></gpx>